FDX375 RJBB-KIND
Flight info
| Callsign | FDX375 |
|---|---|
| Flight time | 12h 5m |
| Altitude | 29000 |
| Route | KEC Y43 ISEBI Y81 TASOT Y57 POROT Y577 MAKMU/N0509F310 R580 OPAKE DCT NATES/N0502F330 R338 MARCC G583 ENM DCT MCG DCT GKN Q811 IGSOM/N0500F350 Q811 YXY DCT 60N130W 57N120W 53N110W DCT OSMEE DCT KP15C/N0500F370 DCT KP03G DCT KG78K DCT BRBIE JAKKS2 |
| Aircraft | B748/H-SDE3FGHIM1M2RWXY/LB1 |
Departure
| Time | 2026-05-07 00:24 |
|---|---|
| Airport | Kansai International Airport (RJBB) |
Arrival
| Time | 2026-05-07 12:29 |
|---|---|
| Airport | Indianapolis International Airport (KIND) |
| Time | Latitude | Longitude | Altitude | Speed | Heading |
|---|---|---|---|---|---|
| 2026-05-06 23:44 | 34.43492 | 135.22456 | 15 ft | 0 kts | 232° |
| 2026-05-07 00:06 | 34.43495 | 135.22461 | 15 ft | 1 kts | 232° |
| 2026-05-07 00:06 | 34.43505 | 135.22476 | 15 ft | 1 kts | 232° |
| 2026-05-07 00:06 | 34.43510 | 135.22485 | 15 ft | 1 kts | 232° |
| 2026-05-07 00:07 | 34.43518 | 135.22498 | 15 ft | 1 kts | 232° |
| 2026-05-07 00:07 | 34.43526 | 135.22510 | 15 ft | 1 kts | 232° |
| 2026-05-07 00:07 | 34.43534 | 135.22520 | 15 ft | 1 kts | 232° |
| 2026-05-07 00:07 | 34.43542 | 135.22534 | 15 ft | 1 kts | 232° |
| 2026-05-07 00:08 | 34.43550 | 135.22545 | 15 ft | 1 kts | 231° |
| 2026-05-07 00:08 | 34.43558 | 135.22557 | 15 ft | 1 kts | 231° |
| 2026-05-07 00:08 | 34.43566 | 135.22569 | 15 ft | 1 kts | 231° |
| 2026-05-07 00:08 | 34.43574 | 135.22582 | 15 ft | 1 kts | 231° |
| 2026-05-07 00:09 | 34.43582 | 135.22594 | 15 ft | 1 kts | 230° |
| 2026-05-07 00:09 | 34.43590 | 135.22606 | 15 ft | 1 kts | 230° |
| 2026-05-07 00:09 | 34.43595 | 135.22612 | 15 ft | 0 kts | 230° |
| 2026-05-07 00:14 | 34.43594 | 135.22612 | 15 ft | 0 kts | 230° |
| 2026-05-07 00:14 | 34.43592 | 135.22607 | 15 ft | 0 kts | 243° |
| 2026-05-07 00:14 | 34.43591 | 135.22604 | 15 ft | 0 kts | 255° |
| 2026-05-07 00:14 | 34.43594 | 135.22591 | 15 ft | 2 kts | 307° |
| 2026-05-07 00:15 | 34.43613 | 135.22574 | 15 ft | 4 kts | 327° |
| 2026-05-07 00:15 | 34.43640 | 135.22554 | 15 ft | 5 kts | 327° |
| 2026-05-07 00:15 | 34.43675 | 135.22525 | 15 ft | 6 kts | 319° |
| 2026-05-07 00:15 | 34.43713 | 135.22484 | 15 ft | 7 kts | 319° |
| 2026-05-07 00:16 | 34.43758 | 135.22437 | 15 ft | 9 kts | 319° |
| 2026-05-07 00:16 | 34.43798 | 135.22374 | 15 ft | 9 kts | 270° |
| 2026-05-07 00:16 | 34.43758 | 135.22305 | 15 ft | 10 kts | 229° |
| 2026-05-07 00:16 | 34.43706 | 135.22229 | 15 ft | 12 kts | 231° |
| 2026-05-07 00:17 | 34.43649 | 135.22144 | 15 ft | 13 kts | 231° |
| 2026-05-07 00:17 | 34.43586 | 135.22049 | 15 ft | 15 kts | 231° |
| 2026-05-07 00:17 | 34.43517 | 135.21947 | 15 ft | 16 kts | 231° |
| 2026-05-07 00:17 | 34.43444 | 135.21837 | 15 ft | 17 kts | 231° |
| 2026-05-07 00:18 | 34.43362 | 135.21713 | 15 ft | 19 kts | 231° |
| 2026-05-07 00:18 | 34.43278 | 135.21591 | 15 ft | 17 kts | 231° |
| 2026-05-07 00:18 | 34.43204 | 135.21480 | 15 ft | 16 kts | 231° |
| 2026-05-07 00:18 | 34.43137 | 135.21379 | 15 ft | 15 kts | 231° |
| 2026-05-07 00:19 | 34.43069 | 135.21278 | 15 ft | 15 kts | 231° |
| 2026-05-07 00:19 | 34.43002 | 135.21179 | 15 ft | 15 kts | 231° |
| 2026-05-07 00:19 | 34.42936 | 135.21080 | 15 ft | 15 kts | 230° |
| 2026-05-07 00:19 | 34.42865 | 135.20978 | 15 ft | 16 kts | 230° |
| 2026-05-07 00:20 | 34.42794 | 135.20871 | 15 ft | 13 kts | 232° |
| 2026-05-07 00:20 | 34.42750 | 135.20792 | 15 ft | 10 kts | 255° |
| 2026-05-07 00:20 | 34.42768 | 135.20729 | 15 ft | 7 kts | 321° |
| 2026-05-07 00:20 | 34.42806 | 135.20691 | 15 ft | 6 kts | 321° |
| 2026-05-07 00:21 | 34.42836 | 135.20664 | 15 ft | 4 kts | 321° |
| 2026-05-07 00:21 | 34.42858 | 135.20647 | 15 ft | 2 kts | 355° |
| 2026-05-07 00:21 | 34.42876 | 135.20656 | 15 ft | 2 kts | 35° |
| 2026-05-07 00:21 | 34.42889 | 135.20668 | 15 ft | 0 kts | 48° |
| 2026-05-07 00:23 | 34.42973 | 135.20792 | 15 ft | 48 kts | 50° |
| 2026-05-07 00:23 | 34.43318 | 135.21304 | 15 ft | 107 kts | 51° |
| 2026-05-07 00:23 | 34.43895 | 135.22162 | 16 ft | 153 kts | 51° |
| 2026-05-07 00:23 | 34.44649 | 135.23297 | 19 ft | 189 kts | 50° |
| 2026-05-07 00:24 | 34.45495 | 135.24551 | 394 ft | 188 kts | 49° |
| 2026-05-07 00:24 | 34.46398 | 135.25664 | 764 ft | 192 kts | 33° |
| 2026-05-07 00:24 | 34.47667 | 135.26199 | 1061 ft | 194 kts | 0° |
| 2026-05-07 00:24 | 34.48978 | 135.25839 | 1358 ft | 200 kts | 330° |
| 2026-05-07 00:25 | 34.49985 | 135.24687 | 1581 ft | 198 kts | 300° |
| 2026-05-07 00:25 | 34.50369 | 135.23120 | 1720 ft | 196 kts | 270° |
| 2026-05-07 00:25 | 34.50120 | 135.21478 | 1807 ft | 201 kts | 246° |
| 2026-05-07 00:25 | 34.49524 | 135.19984 | 2148 ft | 191 kts | 240° |
| 2026-05-07 00:26 | 34.48811 | 135.18657 | 2421 ft | 189 kts | 234° |
| 2026-05-07 00:26 | 34.48047 | 135.17352 | 2538 ft | 193 kts | 234° |
| 2026-05-07 00:26 | 34.47260 | 135.16010 | 2699 ft | 195 kts | 234° |
| 2026-05-07 00:26 | 34.46471 | 135.14661 | 2854 ft | 198 kts | 234° |
| 2026-05-07 00:27 | 34.45673 | 135.13290 | 3025 ft | 200 kts | 235° |
| 2026-05-07 00:27 | 34.44866 | 135.11905 | 3183 ft | 202 kts | 235° |
| 2026-05-07 00:27 | 34.44048 | 135.10498 | 3348 ft | 204 kts | 234° |
| 2026-05-07 00:27 | 34.43232 | 135.09091 | 3514 ft | 206 kts | 234° |
| 2026-05-07 00:28 | 34.42388 | 135.07638 | 3550 ft | 219 kts | 234° |
| 2026-05-07 00:28 | 34.41495 | 135.06097 | 3748 ft | 226 kts | 234° |
| 2026-05-07 00:28 | 34.40301 | 135.04843 | 3933 ft | 231 kts | 204° |
| 2026-05-07 00:28 | 34.38750 | 135.04343 | 4203 ft | 235 kts | 192° |
| 2026-05-07 00:29 | 34.37100 | 135.03847 | 4353 ft | 246 kts | 198° |
| 2026-05-07 00:29 | 34.35436 | 135.03238 | 4619 ft | 254 kts | 198° |
| 2026-05-07 00:30 | 34.30148 | 135.01327 | 5850 ft | 267 kts | 198° |
| 2026-05-07 00:30 | 34.28344 | 135.00700 | 6300 ft | 270 kts | 191° |
| 2026-05-07 00:30 | 34.26446 | 135.00738 | 6724 ft | 277 kts | 167° |
| 2026-05-07 00:30 | 34.24603 | 135.01376 | 7160 ft | 280 kts | 165° |
| 2026-05-07 00:31 | 34.22699 | 135.02033 | 7612 ft | 281 kts | 170° |
| 2026-05-07 00:31 | 34.20797 | 135.02545 | 8101 ft | 282 kts | 170° |
| 2026-05-07 00:31 | 34.18891 | 135.03055 | 8566 ft | 283 kts | 170° |
| 2026-05-07 00:31 | 34.16948 | 135.03581 | 8970 ft | 287 kts | 170° |
| 2026-05-07 00:32 | 34.15005 | 135.04108 | 9413 ft | 288 kts | 170° |
| 2026-05-07 00:32 | 34.13024 | 135.04645 | 9823 ft | 290 kts | 171° |
| 2026-05-07 00:32 | 34.11052 | 135.05179 | 10244 ft | 292 kts | 170° |
| 2026-05-07 00:32 | 34.09038 | 135.05722 | 10472 ft | 302 kts | 170° |
| 2026-05-07 00:33 | 34.06961 | 135.06284 | 10709 ft | 310 kts | 170° |
| 2026-05-07 00:33 | 34.04812 | 135.06865 | 10903 ft | 320 kts | 170° |
| 2026-05-07 00:33 | 34.02581 | 135.07469 | 11105 ft | 330 kts | 170° |
| 2026-05-07 00:33 | 34.00328 | 135.08079 | 11315 ft | 340 kts | 170° |
| 2026-05-07 00:34 | 33.97977 | 135.08717 | 11515 ft | 350 kts | 170° |
| 2026-05-07 00:34 | 33.95571 | 135.09369 | 11723 ft | 360 kts | 169° |
| 2026-05-07 00:34 | 33.93076 | 135.10066 | 11899 ft | 371 kts | 165° |
| 2026-05-07 00:34 | 33.90720 | 135.11394 | 12074 ft | 385 kts | 146° |
| 2026-05-07 00:35 | 33.88771 | 135.13676 | 12291 ft | 397 kts | 130° |
| 2026-05-07 00:35 | 33.87080 | 135.16321 | 12552 ft | 405 kts | 129° |
| 2026-05-07 00:35 | 33.85345 | 135.19090 | 12741 ft | 415 kts | 130° |
| 2026-05-07 00:35 | 33.83530 | 135.21819 | 12920 ft | 424 kts | 130° |
| 2026-05-07 00:36 | 33.81661 | 135.24622 | 13171 ft | 432 kts | 130° |
| 2026-05-07 00:36 | 33.79774 | 135.27426 | 13500 ft | 437 kts | 130° |
| 2026-05-07 00:36 | 33.77847 | 135.30301 | 13933 ft | 439 kts | 130° |
| 2026-05-07 00:36 | 33.75937 | 135.33148 | 14272 ft | 443 kts | 130° |
| 2026-05-07 00:37 | 33.73998 | 135.36040 | 14713 ft | 444 kts | 130° |
| 2026-05-07 00:37 | 33.72064 | 135.38921 | 15015 ft | 449 kts | 130° |
| 2026-05-07 00:37 | 33.70089 | 135.41864 | 15471 ft | 449 kts | 130° |
| 2026-05-07 00:37 | 33.68154 | 135.44745 | 15855 ft | 451 kts | 130° |
| 2026-05-07 00:38 | 33.66158 | 135.47717 | 16206 ft | 454 kts | 130° |
| 2026-05-07 00:38 | 33.64169 | 135.50671 | 16579 ft | 456 kts | 130° |
| 2026-05-07 00:38 | 33.62177 | 135.53636 | 16970 ft | 457 kts | 130° |
| 2026-05-07 00:38 | 33.60184 | 135.56590 | 17265 ft | 460 kts | 130° |
| 2026-05-07 00:39 | 33.58165 | 135.59595 | 17594 ft | 463 kts | 130° |
| 2026-05-07 00:39 | 33.56130 | 135.62605 | 17926 ft | 465 kts | 130° |
| 2026-05-07 00:39 | 33.54109 | 135.65605 | 18219 ft | 468 kts | 130° |
| 2026-05-07 00:39 | 33.52054 | 135.68648 | 18573 ft | 469 kts | 130° |
| 2026-05-07 00:40 | 33.50015 | 135.71670 | 18899 ft | 471 kts | 130° |
| 2026-05-07 00:40 | 33.47964 | 135.74759 | 19151 ft | 475 kts | 126° |
| 2026-05-07 00:40 | 33.46429 | 135.78299 | 19422 ft | 480 kts | 110° |
| 2026-05-07 00:40 | 33.45740 | 135.82169 | 19672 ft | 484 kts | 94° |
| 2026-05-07 00:41 | 33.45958 | 135.86198 | 19946 ft | 487 kts | 78° |
| 2026-05-07 00:41 | 33.46709 | 135.90166 | 20231 ft | 489 kts | 77° |
| 2026-05-07 00:41 | 33.47511 | 135.94116 | 20383 ft | 494 kts | 76° |
| 2026-05-07 00:41 | 33.48376 | 135.98093 | 20663 ft | 497 kts | 76° |
| 2026-05-07 00:42 | 33.49223 | 136.02104 | 20910 ft | 499 kts | 77° |
| 2026-05-07 00:42 | 33.50030 | 136.06152 | 21167 ft | 502 kts | 77° |
| 2026-05-07 00:42 | 33.50834 | 136.10228 | 21453 ft | 503 kts | 77° |
| 2026-05-07 00:42 | 33.51631 | 136.14328 | 21810 ft | 503 kts | 77° |
| 2026-05-07 00:43 | 33.52418 | 136.18379 | 22021 ft | 506 kts | 77° |
| 2026-05-07 00:43 | 33.53223 | 136.22530 | 22279 ft | 508 kts | 77° |
| 2026-05-07 00:43 | 33.54024 | 136.26662 | 22481 ft | 511 kts | 77° |
| 2026-05-07 00:43 | 33.54816 | 136.30774 | 22683 ft | 514 kts | 77° |
| 2026-05-07 00:44 | 33.55622 | 136.34946 | 22843 ft | 518 kts | 77° |
| 2026-05-07 00:44 | 33.56432 | 136.39163 | 23181 ft | 517 kts | 77° |
| 2026-05-07 00:44 | 33.57234 | 136.43337 | 23438 ft | 519 kts | 77° |
| 2026-05-07 00:44 | 33.58041 | 136.47551 | 23661 ft | 521 kts | 77° |
| 2026-05-07 00:45 | 33.58853 | 136.51794 | 23904 ft | 522 kts | 77° |
| 2026-05-07 00:45 | 33.59665 | 136.56045 | 24066 ft | 525 kts | 77° |
| 2026-05-07 00:45 | 33.60480 | 136.60324 | 24213 ft | 529 kts | 77° |
| 2026-05-07 00:45 | 33.61289 | 136.64580 | 24518 ft | 528 kts | 78° |
| 2026-05-07 00:46 | 33.62105 | 136.68898 | 24636 ft | 532 kts | 78° |
| 2026-05-07 00:46 | 33.62923 | 136.73221 | 24837 ft | 534 kts | 78° |
| 2026-05-07 00:46 | 33.63734 | 136.77536 | 25089 ft | 534 kts | 78° |
| 2026-05-07 00:46 | 33.64556 | 136.81883 | 25303 ft | 535 kts | 78° |
| 2026-05-07 00:47 | 33.65384 | 136.86272 | 25420 ft | 538 kts | 78° |
| 2026-05-07 00:47 | 33.66208 | 136.90643 | 25574 ft | 541 kts | 78° |
| 2026-05-07 00:47 | 33.67040 | 136.95071 | 25709 ft | 544 kts | 78° |
| 2026-05-07 00:47 | 33.67870 | 136.99503 | 25901 ft | 545 kts | 78° |
| 2026-05-07 00:48 | 33.68699 | 137.03947 | 26047 ft | 548 kts | 78° |
| 2026-05-07 00:48 | 33.69525 | 137.08395 | 26273 ft | 548 kts | 78° |
| 2026-05-07 00:48 | 33.70182 | 137.12845 | 26413 ft | 548 kts | 86° |
| 2026-05-07 00:48 | 33.70432 | 137.17448 | 26626 ft | 548 kts | 88° |
| 2026-05-07 00:49 | 33.70612 | 137.21994 | 26723 ft | 551 kts | 90° |
| 2026-05-07 00:49 | 33.70724 | 137.26575 | 26983 ft | 550 kts | 91° |
| 2026-05-07 00:49 | 33.70775 | 137.31136 | 27256 ft | 549 kts | 91° |
| 2026-05-07 00:49 | 33.70816 | 137.35715 | 27447 ft | 551 kts | 90° |
| 2026-05-07 00:50 | 33.70932 | 137.40324 | 27690 ft | 551 kts | 90° |
| 2026-05-07 00:50 | 33.71060 | 137.44897 | 27917 ft | 551 kts | 90° |
| 2026-05-07 00:50 | 33.71196 | 137.49446 | 28182 ft | 551 kts | 90° |
| 2026-05-07 00:50 | 33.71331 | 137.54060 | 28370 ft | 552 kts | 90° |
| 2026-05-07 00:51 | 33.71462 | 137.58621 | 28624 ft | 551 kts | 90° |
| 2026-05-07 00:51 | 33.71593 | 137.63277 | 28868 ft | 551 kts | 90° |
| 2026-05-07 00:51 | 33.71719 | 137.67835 | 29096 ft | 550 kts | 90° |
| 2026-05-07 00:51 | 33.71843 | 137.72404 | 29347 ft | 550 kts | 90° |
| 2026-05-07 00:52 | 33.71966 | 137.77011 | 29542 ft | 550 kts | 90° |
| 2026-05-07 00:52 | 33.72086 | 137.81607 | 29687 ft | 551 kts | 91° |
| 2026-05-07 00:52 | 33.72202 | 137.86150 | 29925 ft | 550 kts | 91° |
| 2026-05-07 00:52 | 33.72319 | 137.90739 | 30133 ft | 550 kts | 91° |
| 2026-05-07 00:53 | 33.72433 | 137.95291 | 30262 ft | 551 kts | 91° |
| 2026-05-07 00:53 | 33.72547 | 137.99925 | 30508 ft | 550 kts | 91° |
| 2026-05-07 00:53 | 33.72658 | 138.04507 | 30703 ft | 550 kts | 91° |
| 2026-05-07 00:53 | 33.72766 | 138.09064 | 30944 ft | 548 kts | 91° |
| 2026-05-07 00:54 | 33.72872 | 138.13619 | 31111 ft | 549 kts | 91° |
| 2026-05-07 00:54 | 33.72978 | 138.18184 | 31290 ft | 548 kts | 91° |
| 2026-05-07 00:54 | 33.73080 | 138.22710 | 31468 ft | 548 kts | 91° |
| 2026-05-07 00:54 | 33.73183 | 138.27296 | 31648 ft | 547 kts | 91° |
| 2026-05-07 00:55 | 33.73281 | 138.31808 | 31902 ft | 545 kts | 91° |
| 2026-05-07 00:55 | 33.73378 | 138.36369 | 31876 ft | 549 kts | 91° |
| 2026-05-07 00:55 | 33.73477 | 138.40988 | 31994 ft | 549 kts | 91° |
| 2026-05-07 00:55 | 33.73638 | 138.45509 | 32164 ft | 549 kts | 85° |
| 2026-05-07 00:56 | 33.74352 | 138.50020 | 32380 ft | 550 kts | 74° |
| 2026-05-07 00:56 | 33.75713 | 138.54308 | 32433 ft | 553 kts | 63° |
| 2026-05-07 00:56 | 33.79619 | 138.62256 | 32516 ft | 556 kts | 58° |
| 2026-05-07 00:57 | 33.81656 | 138.66235 | 32705 ft | 554 kts | 58° |
| 2026-05-07 00:57 | 33.83656 | 138.70160 | 32792 ft | 555 kts | 58° |
| 2026-05-07 00:57 | 33.85663 | 138.74123 | 32914 ft | 555 kts | 58° |
| 2026-05-07 00:57 | 33.87685 | 138.78130 | 32960 ft | 557 kts | 58° |
| 2026-05-07 00:58 | 33.91691 | 138.86089 | 32967 ft | 556 kts | 59° |
| 2026-05-07 00:58 | 33.95669 | 138.94012 | 32959 ft | 554 kts | 59° |
| 2026-05-07 00:59 | 34.01611 | 139.05887 | 32954 ft | 553 kts | 58° |
| 2026-05-07 01:00 | 34.05570 | 139.13823 | 32954 ft | 553 kts | 58° |
| 2026-05-07 01:00 | 34.09520 | 139.21764 | 32956 ft | 552 kts | 58° |
| 2026-05-07 01:01 | 34.13457 | 139.29721 | 32947 ft | 551 kts | 58° |
| 2026-05-07 01:01 | 34.17383 | 139.37611 | 32954 ft | 552 kts | 58° |
| 2026-05-07 01:02 | 34.21337 | 139.45564 | 32955 ft | 550 kts | 58° |
| 2026-05-07 01:02 | 34.25237 | 139.53438 | 32957 ft | 548 kts | 58° |
| 2026-05-07 01:03 | 34.29172 | 139.61404 | 32961 ft | 551 kts | 58° |
| 2026-05-07 01:03 | 34.33088 | 139.69353 | 32938 ft | 551 kts | 59° |
| 2026-05-07 01:04 | 34.36977 | 139.77272 | 32938 ft | 551 kts | 58° |
| 2026-05-07 01:04 | 34.40875 | 139.85225 | 32942 ft | 549 kts | 59° |
| 2026-05-07 01:05 | 34.44762 | 139.93182 | 32939 ft | 550 kts | 59° |
| 2026-05-07 01:05 | 34.48646 | 140.01150 | 32944 ft | 552 kts | 58° |
| 2026-05-07 01:06 | 34.52536 | 140.09157 | 32942 ft | 552 kts | 59° |
| 2026-05-07 01:06 | 34.56421 | 140.17166 | 32954 ft | 551 kts | 58° |
| 2026-05-07 01:07 | 34.60265 | 140.25127 | 32956 ft | 552 kts | 58° |
| 2026-05-07 01:07 | 34.64149 | 140.33176 | 32955 ft | 553 kts | 58° |
| 2026-05-07 01:08 | 34.68002 | 140.41206 | 32948 ft | 553 kts | 58° |
| 2026-05-07 01:08 | 34.71830 | 140.49303 | 32955 ft | 553 kts | 59° |
| 2026-05-07 01:09 | 34.75594 | 140.57449 | 32959 ft | 553 kts | 59° |
| 2026-05-07 01:09 | 34.79351 | 140.65613 | 32955 ft | 554 kts | 60° |
| 2026-05-07 01:10 | 34.83100 | 140.73775 | 32955 ft | 556 kts | 59° |
| 2026-05-07 01:10 | 34.86838 | 140.81950 | 32960 ft | 556 kts | 60° |
| 2026-05-07 01:11 | 34.90594 | 140.90173 | 32973 ft | 557 kts | 59° |
| 2026-05-07 01:11 | 34.94346 | 140.98416 | 32989 ft | 559 kts | 59° |
| 2026-05-07 01:12 | 34.98103 | 141.06686 | 32983 ft | 558 kts | 59° |
| 2026-05-07 01:12 | 35.01856 | 141.14957 | 32978 ft | 557 kts | 59° |
| 2026-05-07 01:13 | 35.05548 | 141.23145 | 32962 ft | 554 kts | 59° |
| 2026-05-07 01:13 | 35.09261 | 141.31380 | 32976 ft | 554 kts | 59° |
| 2026-05-07 01:14 | 35.12993 | 141.39673 | 32969 ft | 556 kts | 59° |
| 2026-05-07 01:14 | 35.16696 | 141.47931 | 32960 ft | 554 kts | 59° |
| 2026-05-07 01:15 | 35.20372 | 141.56137 | 32957 ft | 553 kts | 59° |
| 2026-05-07 01:15 | 35.24052 | 141.64397 | 32963 ft | 553 kts | 59° |
| 2026-05-07 01:16 | 35.27704 | 141.72594 | 32960 ft | 550 kts | 60° |
| 2026-05-07 01:16 | 35.31357 | 141.80823 | 32967 ft | 551 kts | 60° |
| 2026-05-07 01:17 | 35.34975 | 141.88988 | 32964 ft | 547 kts | 59° |
| 2026-05-07 01:17 | 35.38598 | 141.97185 | 32977 ft | 548 kts | 60° |
| 2026-05-07 01:18 | 35.42225 | 142.05411 | 32968 ft | 547 kts | 60° |
| 2026-05-07 01:18 | 35.45817 | 142.13573 | 32969 ft | 546 kts | 60° |
| 2026-05-07 01:19 | 35.49410 | 142.21767 | 32968 ft | 543 kts | 60° |
| 2026-05-07 01:19 | 35.52957 | 142.29871 | 32977 ft | 542 kts | 60° |
| 2026-05-07 01:20 | 35.56519 | 142.38029 | 32974 ft | 540 kts | 60° |
| 2026-05-07 01:20 | 35.60051 | 142.46140 | 32967 ft | 539 kts | 60° |
| 2026-05-07 01:21 | 35.63559 | 142.54216 | 32967 ft | 538 kts | 60° |
| 2026-05-07 01:21 | 35.67055 | 142.62282 | 32973 ft | 537 kts | 60° |
| 2026-05-07 01:22 | 35.70570 | 142.70415 | 32967 ft | 536 kts | 61° |
| 2026-05-07 01:22 | 35.74052 | 142.78490 | 32970 ft | 536 kts | 61° |
| 2026-05-07 01:23 | 35.77508 | 142.86525 | 32970 ft | 534 kts | 61° |
| 2026-05-07 01:23 | 35.80957 | 142.94575 | 32974 ft | 533 kts | 60° |
| 2026-05-07 01:24 | 35.84414 | 143.02653 | 32973 ft | 532 kts | 61° |
| 2026-05-07 01:24 | 35.88298 | 143.10324 | 32979 ft | 528 kts | 50° |
| 2026-05-07 01:25 | 35.93216 | 143.16965 | 32986 ft | 526 kts | 39° |
| 2026-05-07 01:25 | 35.99049 | 143.22354 | 32978 ft | 521 kts | 28° |
| 2026-05-07 01:26 | 36.05457 | 143.26271 | 32983 ft | 515 kts | 20° |
| 2026-05-07 01:26 | 36.11980 | 143.29987 | 32986 ft | 517 kts | 23° |
| 2026-05-07 01:27 | 36.18433 | 143.33946 | 32972 ft | 515 kts | 20° |
| 2026-05-07 01:27 | 36.25034 | 143.37395 | 32974 ft | 514 kts | 17° |
| 2026-05-07 01:28 | 36.31725 | 143.40440 | 32976 ft | 513 kts | 15° |
| 2026-05-07 01:28 | 36.38455 | 143.43324 | 32980 ft | 514 kts | 16° |
| 2026-05-07 01:29 | 36.45198 | 143.46350 | 32976 ft | 513 kts | 16° |
| 2026-05-07 01:29 | 36.51886 | 143.49383 | 32977 ft | 513 kts | 16° |
| 2026-05-07 01:30 | 36.58573 | 143.52425 | 32983 ft | 512 kts | 16° |
| 2026-05-07 01:30 | 36.65276 | 143.55478 | 32989 ft | 512 kts | 16° |
| 2026-05-07 01:31 | 36.71962 | 143.58533 | 32990 ft | 511 kts | 16° |
| 2026-05-07 01:31 | 36.78643 | 143.61591 | 32985 ft | 511 kts | 16° |
| 2026-05-07 01:32 | 36.85283 | 143.64635 | 32985 ft | 511 kts | 16° |
| 2026-05-07 01:32 | 36.91965 | 143.67705 | 32978 ft | 510 kts | 16° |
| 2026-05-07 01:33 | 36.98621 | 143.70770 | 32976 ft | 510 kts | 17° |
| 2026-05-07 01:33 | 37.05242 | 143.73825 | 32974 ft | 509 kts | 16° |
| 2026-05-07 01:34 | 37.11874 | 143.76891 | 32979 ft | 509 kts | 17° |
| 2026-05-07 01:34 | 37.18536 | 143.79973 | 32979 ft | 510 kts | 16° |
| 2026-05-07 01:35 | 37.25173 | 143.83052 | 32976 ft | 510 kts | 16° |
| 2026-05-07 01:35 | 37.32931 | 143.86661 | 32977 ft | 509 kts | 16° |
| 2026-05-07 01:36 | 37.38482 | 143.89246 | 32978 ft | 510 kts | 16° |
| 2026-05-07 01:36 | 37.45153 | 143.92358 | 32977 ft | 510 kts | 16° |
| 2026-05-07 01:37 | 37.51777 | 143.95454 | 32977 ft | 511 kts | 16° |
| 2026-05-07 01:37 | 37.58445 | 143.98579 | 32971 ft | 511 kts | 16° |
| 2026-05-07 01:38 | 37.65125 | 144.01714 | 32977 ft | 511 kts | 15° |
| 2026-05-07 01:38 | 37.71800 | 144.04852 | 32972 ft | 511 kts | 16° |
| 2026-05-07 01:39 | 37.78460 | 144.07989 | 32965 ft | 511 kts | 15° |
| 2026-05-07 01:39 | 37.85111 | 144.11130 | 32969 ft | 510 kts | 15° |
| 2026-05-07 01:40 | 37.91720 | 144.14255 | 32962 ft | 511 kts | 15° |
| 2026-05-07 01:40 | 37.98398 | 144.17418 | 32967 ft | 511 kts | 15° |
| 2026-05-07 01:41 | 38.05069 | 144.20587 | 32969 ft | 512 kts | 15° |
| 2026-05-07 01:41 | 38.11763 | 144.23772 | 32966 ft | 513 kts | 15° |
| 2026-05-07 01:42 | 38.18416 | 144.26942 | 32972 ft | 513 kts | 15° |
| 2026-05-07 01:42 | 38.25104 | 144.30138 | 32975 ft | 512 kts | 15° |
| 2026-05-07 01:43 | 38.31733 | 144.33311 | 32984 ft | 512 kts | 15° |
| 2026-05-07 01:43 | 38.38407 | 144.36511 | 32977 ft | 513 kts | 15° |
| 2026-05-07 01:44 | 38.45067 | 144.39712 | 32974 ft | 514 kts | 15° |
| 2026-05-07 01:44 | 38.51750 | 144.42931 | 32978 ft | 514 kts | 15° |
| 2026-05-07 01:45 | 38.58463 | 144.46170 | 32967 ft | 515 kts | 15° |
| 2026-05-07 01:45 | 38.65084 | 144.49618 | 32969 ft | 518 kts | 20° |
| 2026-05-07 01:46 | 38.71296 | 144.54481 | 32972 ft | 528 kts | 32° |
| 2026-05-07 01:46 | 38.76947 | 144.60475 | 32974 ft | 532 kts | 36° |
| 2026-05-07 01:47 | 38.82502 | 144.66805 | 32958 ft | 534 kts | 37° |
| 2026-05-07 01:47 | 38.88042 | 144.73161 | 32947 ft | 535 kts | 37° |
| 2026-05-07 01:48 | 38.93584 | 144.79527 | 32947 ft | 537 kts | 37° |
| 2026-05-07 01:48 | 38.99104 | 144.85886 | 32940 ft | 536 kts | 37° |
| 2026-05-07 01:49 | 39.04659 | 144.92300 | 32942 ft | 535 kts | 37° |
| 2026-05-07 01:49 | 39.10180 | 144.98685 | 32939 ft | 535 kts | 37° |
| 2026-05-07 01:50 | 39.15670 | 145.05052 | 32953 ft | 534 kts | 37° |
| 2026-05-07 01:50 | 39.21182 | 145.11458 | 32959 ft | 534 kts | 37° |
| 2026-05-07 01:51 | 39.26705 | 145.17891 | 32962 ft | 534 kts | 37° |
| 2026-05-07 01:51 | 39.32211 | 145.24318 | 32963 ft | 536 kts | 37° |
| 2026-05-07 01:52 | 39.37722 | 145.30765 | 32956 ft | 536 kts | 37° |
| 2026-05-07 01:52 | 39.43235 | 145.37230 | 32959 ft | 536 kts | 37° |
| 2026-05-07 01:53 | 39.48743 | 145.43704 | 32975 ft | 535 kts | 36° |
| 2026-05-07 01:53 | 39.54232 | 145.50169 | 32970 ft | 536 kts | 36° |
| 2026-05-07 01:54 | 39.59730 | 145.56656 | 32975 ft | 537 kts | 36° |
| 2026-05-07 01:54 | 39.65248 | 145.63185 | 32978 ft | 536 kts | 36° |
| 2026-05-07 01:55 | 39.70733 | 145.69690 | 32963 ft | 537 kts | 37° |
| 2026-05-07 01:55 | 39.76275 | 145.76276 | 32947 ft | 538 kts | 37° |
| 2026-05-07 01:56 | 39.81786 | 145.82842 | 32955 ft | 538 kts | 37° |
| 2026-05-07 01:56 | 39.87256 | 145.89372 | 32951 ft | 537 kts | 37° |
| 2026-05-07 01:57 | 39.92769 | 145.95967 | 32951 ft | 539 kts | 37° |
| 2026-05-07 01:57 | 39.98289 | 146.02586 | 32957 ft | 539 kts | 37° |
| 2026-05-07 01:58 | 40.03777 | 146.09186 | 32957 ft | 539 kts | 37° |
| 2026-05-07 01:58 | 40.09277 | 146.15813 | 32957 ft | 539 kts | 36° |
| 2026-05-07 01:59 | 40.14757 | 146.22432 | 32960 ft | 538 kts | 37° |
| 2026-05-07 01:59 | 40.20231 | 146.29056 | 32963 ft | 539 kts | 37° |
| 2026-05-07 02:00 | 40.25723 | 146.35721 | 32962 ft | 538 kts | 36° |
| 2026-05-07 02:00 | 40.31208 | 146.42389 | 32961 ft | 540 kts | 36° |
| 2026-05-07 02:01 | 40.36703 | 146.49086 | 32959 ft | 541 kts | 37° |
| 2026-05-07 02:01 | 40.42192 | 146.55795 | 32961 ft | 539 kts | 36° |
| 2026-05-07 02:02 | 40.47657 | 146.62488 | 32967 ft | 538 kts | 36° |
| 2026-05-07 02:02 | 40.53117 | 146.69188 | 32942 ft | 540 kts | 37° |
| 2026-05-07 02:03 | 40.58590 | 146.75919 | 32944 ft | 542 kts | 37° |
| 2026-05-07 02:03 | 40.64057 | 146.82666 | 32951 ft | 541 kts | 37° |
| 2026-05-07 02:04 | 40.69536 | 146.89439 | 32944 ft | 540 kts | 37° |
| 2026-05-07 02:04 | 40.75011 | 146.96220 | 32943 ft | 542 kts | 37° |
| 2026-05-07 02:05 | 40.80479 | 147.03015 | 32943 ft | 540 kts | 37° |
| 2026-05-07 02:05 | 40.85940 | 147.09814 | 32944 ft | 539 kts | 37° |
| 2026-05-07 02:06 | 40.91379 | 147.16600 | 32946 ft | 541 kts | 37° |
| 2026-05-07 02:06 | 40.96857 | 147.23450 | 32945 ft | 540 kts | 37° |
| 2026-05-07 02:07 | 41.02269 | 147.30241 | 32954 ft | 539 kts | 37° |
| 2026-05-07 02:07 | 41.10413 | 147.40482 | 32951 ft | 540 kts | 37° |
| 2026-05-07 02:08 | 41.15865 | 147.47360 | 32954 ft | 540 kts | 37° |
| 2026-05-07 02:08 | 41.21272 | 147.54198 | 32954 ft | 541 kts | 37° |
| 2026-05-07 02:09 | 41.26711 | 147.61092 | 32956 ft | 540 kts | 37° |
| 2026-05-07 02:09 | 41.32120 | 147.67967 | 32937 ft | 541 kts | 38° |
| 2026-05-07 02:10 | 41.37556 | 147.74892 | 32946 ft | 542 kts | 38° |
| 2026-05-07 02:10 | 41.42986 | 147.81827 | 32946 ft | 541 kts | 38° |
| 2026-05-07 02:11 | 41.48394 | 147.88750 | 32931 ft | 540 kts | 38° |
| 2026-05-07 02:11 | 41.53827 | 147.95723 | 32944 ft | 543 kts | 38° |
| 2026-05-07 02:12 | 41.59221 | 148.02666 | 32943 ft | 541 kts | 38° |
| 2026-05-07 02:12 | 41.64611 | 148.09624 | 32942 ft | 540 kts | 38° |
| 2026-05-07 02:13 | 41.69997 | 148.16594 | 32937 ft | 540 kts | 38° |
| 2026-05-07 02:13 | 41.75378 | 148.23599 | 32931 ft | 542 kts | 38° |
| 2026-05-07 02:14 | 41.80734 | 148.30650 | 32934 ft | 540 kts | 38° |
| 2026-05-07 02:14 | 41.86098 | 148.37738 | 32937 ft | 541 kts | 38° |
| 2026-05-07 02:15 | 41.91435 | 148.44807 | 32941 ft | 541 kts | 38° |
| 2026-05-07 02:15 | 41.96776 | 148.51906 | 32934 ft | 541 kts | 38° |
| 2026-05-07 02:16 | 42.02095 | 148.58993 | 32934 ft | 541 kts | 38° |
| 2026-05-07 02:16 | 42.07431 | 148.66119 | 32930 ft | 542 kts | 38° |
| 2026-05-07 02:17 | 42.12771 | 148.73276 | 32925 ft | 541 kts | 38° |
| 2026-05-07 02:17 | 42.18064 | 148.80388 | 32925 ft | 540 kts | 39° |
| 2026-05-07 02:18 | 42.23367 | 148.87527 | 32920 ft | 541 kts | 38° |
| 2026-05-07 02:18 | 42.28685 | 148.94710 | 32928 ft | 541 kts | 38° |
| 2026-05-07 02:19 | 42.33978 | 149.01877 | 32937 ft | 541 kts | 39° |
| 2026-05-07 02:19 | 42.39281 | 149.09074 | 32942 ft | 541 kts | 38° |
| 2026-05-07 02:20 | 42.44582 | 149.16292 | 32926 ft | 540 kts | 38° |
| 2026-05-07 02:20 | 42.49873 | 149.23514 | 32932 ft | 539 kts | 38° |
| 2026-05-07 02:21 | 42.55103 | 149.30670 | 32937 ft | 538 kts | 38° |
| 2026-05-07 02:21 | 42.60400 | 149.37932 | 32938 ft | 540 kts | 39° |
| 2026-05-07 02:22 | 42.65640 | 149.45140 | 32926 ft | 539 kts | 38° |
| 2026-05-07 02:22 | 42.70893 | 149.52385 | 32929 ft | 538 kts | 38° |
| 2026-05-07 02:23 | 42.76139 | 149.59633 | 32913 ft | 538 kts | 38° |
| 2026-05-07 02:23 | 42.81379 | 149.66896 | 32909 ft | 538 kts | 39° |
| 2026-05-07 02:24 | 42.86598 | 149.74147 | 32896 ft | 539 kts | 39° |
| 2026-05-07 02:24 | 42.91826 | 149.81427 | 32888 ft | 539 kts | 39° |
| 2026-05-07 02:25 | 42.97066 | 149.88751 | 32890 ft | 538 kts | 39° |
| 2026-05-07 02:25 | 43.02260 | 149.96025 | 32896 ft | 537 kts | 39° |
| 2026-05-07 02:26 | 43.07471 | 150.03337 | 32883 ft | 540 kts | 39° |
| 2026-05-07 02:26 | 43.12702 | 150.10702 | 32882 ft | 537 kts | 39° |
| 2026-05-07 02:27 | 43.17884 | 150.18019 | 32904 ft | 538 kts | 39° |
| 2026-05-07 02:27 | 43.23082 | 150.25374 | 32898 ft | 537 kts | 39° |
| 2026-05-07 02:28 | 43.28264 | 150.32724 | 32899 ft | 537 kts | 39° |
| 2026-05-07 02:28 | 43.33454 | 150.40105 | 32900 ft | 538 kts | 39° |
| 2026-05-07 02:29 | 43.38615 | 150.47466 | 32896 ft | 539 kts | 39° |
| 2026-05-07 02:29 | 43.43807 | 150.54890 | 32907 ft | 538 kts | 39° |
| 2026-05-07 02:30 | 43.48975 | 150.62303 | 32899 ft | 536 kts | 39° |
| 2026-05-07 02:30 | 43.54104 | 150.69675 | 32883 ft | 538 kts | 40° |
| 2026-05-07 02:31 | 43.59284 | 150.77139 | 32879 ft | 539 kts | 40° |
| 2026-05-07 02:31 | 43.64429 | 150.84575 | 32889 ft | 538 kts | 40° |
| 2026-05-07 02:32 | 43.69597 | 150.92065 | 32892 ft | 539 kts | 40° |
| 2026-05-07 02:32 | 43.74751 | 150.99551 | 32885 ft | 538 kts | 39° |
| 2026-05-07 02:33 | 43.79875 | 151.07016 | 32894 ft | 539 kts | 40° |
| 2026-05-07 02:33 | 43.85036 | 151.14552 | 32871 ft | 539 kts | 40° |
| 2026-05-07 02:34 | 43.90159 | 151.22057 | 32883 ft | 538 kts | 40° |
| 2026-05-07 02:34 | 43.95292 | 151.29599 | 32890 ft | 538 kts | 39° |
| 2026-05-07 02:35 | 44.00396 | 151.37109 | 32892 ft | 538 kts | 39° |
| 2026-05-07 02:35 | 44.05527 | 151.44687 | 32882 ft | 538 kts | 40° |
| 2026-05-07 02:36 | 44.10639 | 151.52255 | 32878 ft | 539 kts | 40° |
| 2026-05-07 02:36 | 44.15748 | 151.59839 | 32878 ft | 539 kts | 39° |
| 2026-05-07 02:37 | 44.20867 | 151.67461 | 32880 ft | 538 kts | 40° |
| 2026-05-07 02:37 | 44.25973 | 151.75081 | 32873 ft | 539 kts | 40° |
| 2026-05-07 02:38 | 44.31070 | 151.82707 | 32862 ft | 540 kts | 40° |
| 2026-05-07 02:38 | 44.36136 | 151.90314 | 32869 ft | 538 kts | 40° |
| 2026-05-07 02:39 | 44.41228 | 151.97977 | 32867 ft | 538 kts | 40° |
| 2026-05-07 02:39 | 44.46322 | 152.05667 | 32861 ft | 539 kts | 40° |
| 2026-05-07 02:40 | 44.51408 | 152.13362 | 32868 ft | 539 kts | 40° |
| 2026-05-07 02:40 | 44.56480 | 152.21060 | 32872 ft | 539 kts | 40° |
| 2026-05-07 02:41 | 44.61527 | 152.28737 | 32878 ft | 540 kts | 40° |
| 2026-05-07 02:41 | 44.66610 | 152.36496 | 32879 ft | 540 kts | 40° |
| 2026-05-07 02:42 | 44.71657 | 152.44218 | 32868 ft | 539 kts | 40° |
| 2026-05-07 02:42 | 44.76737 | 152.52010 | 32879 ft | 541 kts | 40° |
| 2026-05-07 02:43 | 44.81794 | 152.59793 | 32875 ft | 541 kts | 40° |
| 2026-05-07 02:43 | 44.86856 | 152.67606 | 32858 ft | 542 kts | 40° |
| 2026-05-07 02:44 | 44.91914 | 152.75432 | 32853 ft | 542 kts | 40° |
| 2026-05-07 02:44 | 44.96976 | 152.83289 | 32857 ft | 541 kts | 41° |
| 2026-05-07 02:45 | 45.02014 | 152.91132 | 32866 ft | 540 kts | 40° |
| 2026-05-07 02:45 | 45.07044 | 152.98982 | 32848 ft | 542 kts | 40° |
| 2026-05-07 02:46 | 45.12100 | 153.06894 | 32856 ft | 543 kts | 40° |
| 2026-05-07 02:46 | 45.17134 | 153.14801 | 32861 ft | 541 kts | 40° |
| 2026-05-07 02:47 | 45.22148 | 153.22699 | 32856 ft | 542 kts | 40° |
| 2026-05-07 02:47 | 45.27180 | 153.30643 | 32870 ft | 543 kts | 40° |
| 2026-05-07 02:48 | 45.32216 | 153.38621 | 32875 ft | 541 kts | 40° |
| 2026-05-07 02:48 | 45.37208 | 153.46558 | 32869 ft | 540 kts | 40° |
| 2026-05-07 02:49 | 45.42194 | 153.54503 | 32861 ft | 541 kts | 40° |
| 2026-05-07 02:49 | 45.47217 | 153.62538 | 32865 ft | 543 kts | 40° |
| 2026-05-07 02:50 | 45.52212 | 153.70564 | 32852 ft | 543 kts | 41° |
| 2026-05-07 02:50 | 45.57167 | 153.78595 | 32849 ft | 543 kts | 41° |
| 2026-05-07 02:51 | 45.62143 | 153.86681 | 32856 ft | 544 kts | 41° |
| 2026-05-07 02:51 | 45.67142 | 153.94830 | 32856 ft | 544 kts | 41° |
| 2026-05-07 02:52 | 45.72098 | 154.02936 | 32860 ft | 545 kts | 41° |
| 2026-05-07 02:52 | 45.77062 | 154.11085 | 32863 ft | 543 kts | 41° |
| 2026-05-07 02:53 | 45.82003 | 154.19217 | 32856 ft | 544 kts | 41° |
| 2026-05-07 02:53 | 45.86943 | 154.27376 | 32868 ft | 545 kts | 41° |
| 2026-05-07 02:54 | 45.91909 | 154.35603 | 32862 ft | 545 kts | 41° |
| 2026-05-07 02:54 | 45.96865 | 154.43840 | 32860 ft | 546 kts | 41° |
| 2026-05-07 02:55 | 46.01777 | 154.52031 | 32856 ft | 544 kts | 41° |
| 2026-05-07 02:55 | 46.06705 | 154.60274 | 32854 ft | 544 kts | 41° |
| 2026-05-07 02:56 | 46.11641 | 154.68550 | 32839 ft | 547 kts | 42° |
| 2026-05-07 02:56 | 46.16598 | 154.76894 | 32841 ft | 547 kts | 42° |
| 2026-05-07 02:57 | 46.21497 | 154.85161 | 32847 ft | 547 kts | 42° |
| 2026-05-07 02:57 | 46.26443 | 154.93539 | 32853 ft | 547 kts | 42° |
| 2026-05-07 02:58 | 46.31337 | 155.01851 | 32850 ft | 547 kts | 42° |
| 2026-05-07 02:58 | 46.36255 | 155.10229 | 32847 ft | 546 kts | 42° |
| 2026-05-07 02:59 | 46.41153 | 155.18599 | 32853 ft | 547 kts | 42° |
| 2026-05-07 02:59 | 46.46029 | 155.26956 | 32862 ft | 545 kts | 42° |
| 2026-05-07 03:00 | 46.50907 | 155.35347 | 32865 ft | 546 kts | 42° |
| 2026-05-07 03:00 | 46.55787 | 155.43759 | 32876 ft | 547 kts | 42° |
| 2026-05-07 03:01 | 46.60666 | 155.52199 | 32885 ft | 547 kts | 42° |
| 2026-05-07 03:01 | 46.65536 | 155.60651 | 32892 ft | 547 kts | 42° |
| 2026-05-07 03:02 | 46.70413 | 155.69138 | 32872 ft | 549 kts | 42° |
| 2026-05-07 03:02 | 46.75296 | 155.77661 | 32871 ft | 549 kts | 43° |
| 2026-05-07 03:03 | 46.80157 | 155.86179 | 32871 ft | 549 kts | 43° |
| 2026-05-07 03:03 | 46.85057 | 155.94788 | 32870 ft | 549 kts | 42° |
| 2026-05-07 03:04 | 46.89912 | 156.03345 | 32875 ft | 549 kts | 43° |
| 2026-05-07 03:04 | 46.94742 | 156.11883 | 32876 ft | 549 kts | 43° |
| 2026-05-07 03:05 | 46.99587 | 156.20474 | 32882 ft | 551 kts | 43° |
| 2026-05-07 03:05 | 47.04463 | 156.29150 | 32883 ft | 551 kts | 42° |
| 2026-05-07 03:06 | 47.09300 | 156.37785 | 32880 ft | 550 kts | 42° |
| 2026-05-07 03:06 | 47.14142 | 156.46455 | 32888 ft | 549 kts | 42° |
| 2026-05-07 03:07 | 47.18987 | 156.55156 | 32888 ft | 551 kts | 42° |
| 2026-05-07 03:07 | 47.23790 | 156.63817 | 32880 ft | 547 kts | 42° |
| 2026-05-07 03:08 | 47.28573 | 156.72463 | 32863 ft | 550 kts | 43° |
| 2026-05-07 03:08 | 47.33403 | 156.81218 | 32860 ft | 551 kts | 43° |
| 2026-05-07 03:09 | 47.38219 | 156.89980 | 32866 ft | 551 kts | 43° |
| 2026-05-07 03:09 | 47.43034 | 156.98767 | 32862 ft | 550 kts | 43° |
| 2026-05-07 03:10 | 47.47803 | 157.07503 | 32870 ft | 549 kts | 42° |
| 2026-05-07 03:10 | 47.52588 | 157.16292 | 32875 ft | 550 kts | 43° |
| 2026-05-07 03:11 | 47.57391 | 157.25136 | 32875 ft | 553 kts | 42° |
| 2026-05-07 03:11 | 47.62165 | 157.33969 | 32875 ft | 552 kts | 42° |
| 2026-05-07 03:12 | 47.66951 | 157.42845 | 32871 ft | 551 kts | 43° |
| 2026-05-07 03:12 | 47.71711 | 157.51709 | 32874 ft | 550 kts | 42° |
| 2026-05-07 03:13 | 47.76460 | 157.60574 | 32873 ft | 551 kts | 42° |
| 2026-05-07 03:13 | 47.81241 | 157.69525 | 32855 ft | 554 kts | 43° |
| 2026-05-07 03:14 | 47.85964 | 157.78403 | 32862 ft | 554 kts | 43° |
| 2026-05-07 03:15 | 47.93108 | 157.91882 | 32867 ft | 554 kts | 43° |
| 2026-05-07 03:15 | 47.97871 | 158.00908 | 32866 ft | 552 kts | 43° |
| 2026-05-07 03:16 | 48.02587 | 158.09878 | 32866 ft | 552 kts | 42° |
| 2026-05-07 03:16 | 48.07309 | 158.18884 | 32870 ft | 554 kts | 43° |
| 2026-05-07 03:17 | 48.12049 | 158.27957 | 32872 ft | 553 kts | 42° |
| 2026-05-07 03:17 | 48.16754 | 158.36997 | 32877 ft | 553 kts | 43° |
| 2026-05-07 03:18 | 48.21470 | 158.46077 | 32871 ft | 557 kts | 42° |
| 2026-05-07 03:18 | 48.26208 | 158.55240 | 32873 ft | 556 kts | 42° |
| 2026-05-07 03:19 | 48.30904 | 158.64354 | 32869 ft | 554 kts | 42° |
| 2026-05-07 03:19 | 48.35567 | 158.73436 | 32847 ft | 554 kts | 43° |
| 2026-05-07 03:20 | 48.40274 | 158.82622 | 32852 ft | 556 kts | 43° |
| 2026-05-07 03:20 | 48.44998 | 158.91882 | 32841 ft | 556 kts | 43° |
| 2026-05-07 03:21 | 48.49661 | 159.01056 | 32849 ft | 555 kts | 43° |
| 2026-05-07 03:21 | 48.54372 | 159.10345 | 32841 ft | 557 kts | 43° |
| 2026-05-07 03:22 | 48.59067 | 159.19640 | 32826 ft | 559 kts | 43° |
| 2026-05-07 03:22 | 48.63721 | 159.28900 | 32821 ft | 557 kts | 43° |
| 2026-05-07 03:23 | 48.68395 | 159.38217 | 32826 ft | 561 kts | 42° |
| 2026-05-07 03:23 | 48.73069 | 159.47572 | 32828 ft | 559 kts | 43° |
| 2026-05-07 03:24 | 48.77757 | 159.56990 | 32822 ft | 559 kts | 42° |
| 2026-05-07 03:24 | 48.82388 | 159.66334 | 32814 ft | 559 kts | 43° |
| 2026-05-07 03:25 | 48.87036 | 159.75734 | 32817 ft | 561 kts | 43° |
| 2026-05-07 03:25 | 48.91696 | 159.85207 | 32807 ft | 558 kts | 43° |
| 2026-05-07 03:26 | 48.96317 | 159.94634 | 32809 ft | 557 kts | 43° |
| 2026-05-07 03:26 | 49.00924 | 160.04111 | 32816 ft | 563 kts | 44° |
| 2026-05-07 03:27 | 49.05454 | 160.13731 | 32814 ft | 560 kts | 45° |
| 2026-05-07 03:27 | 49.09952 | 160.23389 | 32816 ft | 562 kts | 45° |
| 2026-05-07 03:28 | 49.14437 | 160.33026 | 32810 ft | 563 kts | 44° |
| 2026-05-07 03:28 | 49.18942 | 160.42761 | 32815 ft | 563 kts | 44° |
| 2026-05-07 03:29 | 49.23449 | 160.52528 | 32807 ft | 563 kts | 45° |
| 2026-05-07 03:29 | 49.27961 | 160.62334 | 32805 ft | 566 kts | 45° |
| 2026-05-07 03:30 | 49.32468 | 160.72179 | 32791 ft | 565 kts | 45° |
| 2026-05-07 03:30 | 49.36959 | 160.82022 | 32789 ft | 566 kts | 46° |
| 2026-05-07 03:31 | 49.41467 | 160.91946 | 32783 ft | 567 kts | 45° |
| 2026-05-07 03:31 | 49.45947 | 161.01848 | 32789 ft | 569 kts | 46° |
| 2026-05-07 03:32 | 49.50401 | 161.11748 | 32759 ft | 566 kts | 46° |
| 2026-05-07 03:32 | 49.54840 | 161.21677 | 32774 ft | 568 kts | 46° |
| 2026-05-07 03:33 | 49.59311 | 161.31718 | 32736 ft | 568 kts | 46° |
| 2026-05-07 03:33 | 49.63740 | 161.41719 | 32784 ft | 568 kts | 46° |
| 2026-05-07 03:34 | 49.68198 | 161.51810 | 32753 ft | 569 kts | 47° |
| 2026-05-07 03:34 | 49.72649 | 161.61935 | 32802 ft | 571 kts | 47° |
| 2026-05-07 03:35 | 49.77074 | 161.72047 | 32752 ft | 572 kts | 47° |
| 2026-05-07 03:35 | 49.81500 | 161.82204 | 32741 ft | 568 kts | 47° |
| 2026-05-07 03:36 | 49.85915 | 161.92366 | 32717 ft | 572 kts | 47° |
| 2026-05-07 03:36 | 49.90335 | 162.02589 | 32694 ft | 569 kts | 48° |
| 2026-05-07 03:37 | 49.94762 | 162.12848 | 32759 ft | 575 kts | 48° |
| 2026-05-07 03:37 | 49.99150 | 162.23084 | 32722 ft | 573 kts | 48° |
| 2026-05-07 03:38 | 50.03545 | 162.33369 | 32719 ft | 570 kts | 48° |
| 2026-05-07 03:38 | 50.07882 | 162.43559 | 32757 ft | 570 kts | 48° |
| 2026-05-07 03:39 | 50.12214 | 162.53780 | 32733 ft | 568 kts | 48° |
| 2026-05-07 03:39 | 50.16560 | 162.64067 | 32752 ft | 568 kts | 47° |
| 2026-05-07 03:40 | 50.20859 | 162.74292 | 32726 ft | 562 kts | 50° |
| 2026-05-07 03:40 | 50.25097 | 162.84412 | 32724 ft | 562 kts | 50° |
| 2026-05-07 03:41 | 50.29398 | 162.94701 | 32744 ft | 563 kts | 49° |
| 2026-05-07 03:41 | 50.33643 | 163.04904 | 32685 ft | 564 kts | 49° |
| 2026-05-07 03:42 | 50.37882 | 163.15143 | 32735 ft | 560 kts | 49° |
| 2026-05-07 03:42 | 50.42102 | 163.25371 | 32689 ft | 559 kts | 50° |
| 2026-05-07 03:43 | 50.46303 | 163.35593 | 32730 ft | 560 kts | 49° |
| 2026-05-07 03:43 | 50.50497 | 163.45834 | 32693 ft | 560 kts | 50° |
| 2026-05-07 03:44 | 50.54684 | 163.56099 | 32695 ft | 560 kts | 50° |
| 2026-05-07 03:44 | 50.58858 | 163.66383 | 32695 ft | 555 kts | 50° |
| 2026-05-07 03:45 | 50.62997 | 163.76610 | 32667 ft | 559 kts | 51° |
| 2026-05-07 03:45 | 50.67153 | 163.86929 | 32675 ft | 557 kts | 51° |
| 2026-05-07 03:46 | 50.71257 | 163.97163 | 32667 ft | 555 kts | 51° |
| 2026-05-07 03:46 | 50.75375 | 164.07466 | 32655 ft | 554 kts | 51° |
| 2026-05-07 03:47 | 50.79461 | 164.17728 | 32678 ft | 555 kts | 51° |
| 2026-05-07 03:47 | 50.83556 | 164.28061 | 32660 ft | 555 kts | 52° |
| 2026-05-07 03:48 | 50.87599 | 164.38319 | 32647 ft | 553 kts | 52° |
| 2026-05-07 03:48 | 50.91644 | 164.48613 | 32672 ft | 553 kts | 51° |
| 2026-05-07 03:49 | 50.95715 | 164.58902 | 32670 ft | 551 kts | 51° |
| 2026-05-07 03:49 | 50.99775 | 164.69191 | 32665 ft | 549 kts | 52° |
| 2026-05-07 03:50 | 51.03804 | 164.79450 | 32661 ft | 549 kts | 52° |
| 2026-05-07 03:50 | 51.07829 | 164.89746 | 32651 ft | 548 kts | 53° |
| 2026-05-07 03:51 | 51.11810 | 164.99974 | 32654 ft | 548 kts | 53° |
| 2026-05-07 03:51 | 51.15795 | 165.10261 | 32657 ft | 546 kts | 53° |
| 2026-05-07 03:52 | 51.19753 | 165.20520 | 32653 ft | 545 kts | 53° |
| 2026-05-07 03:52 | 51.23703 | 165.30804 | 32646 ft | 545 kts | 53° |
| 2026-05-07 03:53 | 51.27643 | 165.41106 | 32644 ft | 544 kts | 54° |
| 2026-05-07 03:53 | 51.31543 | 165.51352 | 32650 ft | 542 kts | 54° |
| 2026-05-07 03:54 | 51.35445 | 165.61658 | 32650 ft | 541 kts | 54° |
| 2026-05-07 03:54 | 51.39339 | 165.71924 | 32629 ft | 542 kts | 54° |
| 2026-05-07 03:55 | 51.43237 | 165.82187 | 32624 ft | 540 kts | 54° |
| 2026-05-07 03:55 | 51.47099 | 165.92398 | 32619 ft | 538 kts | 55° |
| 2026-05-07 03:56 | 51.50949 | 166.02620 | 32621 ft | 538 kts | 55° |
| 2026-05-07 03:56 | 51.54798 | 166.12886 | 32616 ft | 537 kts | 55° |
| 2026-05-07 03:57 | 51.58612 | 166.23100 | 32610 ft | 535 kts | 55° |
| 2026-05-07 03:57 | 51.62434 | 166.33382 | 32608 ft | 535 kts | 55° |
| 2026-05-07 03:58 | 51.66208 | 166.43568 | 32607 ft | 534 kts | 55° |
| 2026-05-07 03:58 | 51.70000 | 166.53859 | 32604 ft | 533 kts | 56° |
| 2026-05-07 03:59 | 51.73750 | 166.64072 | 32603 ft | 531 kts | 56° |
| 2026-05-07 03:59 | 51.77497 | 166.74319 | 32594 ft | 531 kts | 57° |
| 2026-05-07 04:00 | 51.81221 | 166.84543 | 32591 ft | 530 kts | 56° |
| 2026-05-07 04:00 | 51.84938 | 166.94795 | 32592 ft | 530 kts | 57° |
| 2026-05-07 04:01 | 51.88636 | 167.05035 | 32582 ft | 527 kts | 57° |
| 2026-05-07 04:01 | 51.92301 | 167.15224 | 32592 ft | 527 kts | 57° |
| 2026-05-07 04:02 | 51.95982 | 167.25499 | 32586 ft | 528 kts | 57° |
| 2026-05-07 04:02 | 51.99626 | 167.35713 | 32596 ft | 527 kts | 57° |
| 2026-05-07 04:03 | 52.03285 | 167.46010 | 32605 ft | 528 kts | 57° |
| 2026-05-07 04:03 | 52.06917 | 167.56276 | 32596 ft | 526 kts | 57° |
| 2026-05-07 04:04 | 52.10560 | 167.66614 | 32595 ft | 526 kts | 58° |
| 2026-05-07 04:04 | 52.14159 | 167.76871 | 32583 ft | 526 kts | 58° |
| 2026-05-07 04:05 | 52.17770 | 167.87204 | 32574 ft | 525 kts | 58° |
| 2026-05-07 04:05 | 52.21361 | 167.97519 | 32573 ft | 524 kts | 58° |
| 2026-05-07 04:06 | 52.24921 | 168.07793 | 32576 ft | 523 kts | 58° |
| 2026-05-07 04:06 | 52.28487 | 168.18123 | 32573 ft | 523 kts | 59° |
| 2026-05-07 04:07 | 52.32034 | 168.28439 | 32570 ft | 522 kts | 59° |
| 2026-05-07 04:07 | 52.35560 | 168.38742 | 32573 ft | 522 kts | 59° |
| 2026-05-07 04:08 | 52.39091 | 168.49100 | 32573 ft | 522 kts | 59° |
| 2026-05-07 04:08 | 52.42586 | 168.59396 | 32569 ft | 521 kts | 59° |
| 2026-05-07 04:09 | 52.46090 | 168.69757 | 32572 ft | 521 kts | 60° |
| 2026-05-07 04:09 | 52.49572 | 168.80101 | 32570 ft | 521 kts | 60° |
| 2026-05-07 04:10 | 52.53053 | 168.90489 | 32564 ft | 519 kts | 60° |
| 2026-05-07 04:10 | 52.56525 | 169.00885 | 32575 ft | 519 kts | 60° |
| 2026-05-07 04:11 | 52.59968 | 169.11246 | 32576 ft | 519 kts | 60° |
| 2026-05-07 04:11 | 52.63407 | 169.21632 | 32581 ft | 519 kts | 60° |
| 2026-05-07 04:12 | 52.66842 | 169.32050 | 32572 ft | 518 kts | 60° |
| 2026-05-07 04:12 | 52.70255 | 169.42458 | 32576 ft | 518 kts | 60° |
| 2026-05-07 04:13 | 52.73655 | 169.52856 | 32574 ft | 518 kts | 60° |
| 2026-05-07 04:13 | 52.77052 | 169.63300 | 32571 ft | 517 kts | 60° |
| 2026-05-07 04:14 | 52.80407 | 169.73659 | 32566 ft | 516 kts | 61° |
| 2026-05-07 04:14 | 52.83789 | 169.84139 | 32577 ft | 516 kts | 62° |
| 2026-05-07 04:15 | 52.87150 | 169.94618 | 32584 ft | 517 kts | 62° |
| 2026-05-07 04:15 | 52.90885 | 170.04675 | 32587 ft | 515 kts | 52° |
| 2026-05-07 04:16 | 52.95643 | 170.13393 | 32589 ft | 513 kts | 41° |
| 2026-05-07 04:16 | 53.01305 | 170.20438 | 32586 ft | 512 kts | 30° |
| 2026-05-07 04:17 | 53.07468 | 170.26353 | 32583 ft | 512 kts | 29° |
| 2026-05-07 04:17 | 53.13640 | 170.32159 | 32574 ft | 511 kts | 28° |
| 2026-05-07 04:18 | 53.19747 | 170.38088 | 32570 ft | 512 kts | 28° |
| 2026-05-07 04:18 | 53.26039 | 170.43660 | 32569 ft | 512 kts | 26° |
| 2026-05-07 04:19 | 53.32344 | 170.49149 | 32569 ft | 512 kts | 26° |
| 2026-05-07 04:19 | 53.38604 | 170.54639 | 32570 ft | 512 kts | 27° |
| 2026-05-07 04:20 | 53.44898 | 170.60191 | 32577 ft | 512 kts | 27° |
| 2026-05-07 04:20 | 53.51189 | 170.65770 | 32570 ft | 512 kts | 28° |
| 2026-05-07 04:21 | 53.60560 | 170.74123 | 32571 ft | 511 kts | 28° |
| 2026-05-07 04:21 | 53.66852 | 170.79762 | 32568 ft | 511 kts | 28° |
| 2026-05-07 04:22 | 53.73111 | 170.85387 | 32557 ft | 511 kts | 28° |
| 2026-05-07 04:22 | 53.79337 | 170.91007 | 32552 ft | 512 kts | 28° |
| 2026-05-07 04:23 | 53.85640 | 170.96715 | 32573 ft | 512 kts | 29° |
| 2026-05-07 04:23 | 53.91846 | 171.02356 | 32582 ft | 510 kts | 29° |
| 2026-05-07 04:24 | 53.98100 | 171.08058 | 32587 ft | 510 kts | 29° |
| 2026-05-07 04:24 | 54.04314 | 171.13744 | 32586 ft | 511 kts | 29° |
| 2026-05-07 04:25 | 54.10544 | 171.19466 | 32580 ft | 511 kts | 29° |
| 2026-05-07 04:25 | 54.16774 | 171.25207 | 32571 ft | 511 kts | 29° |
| 2026-05-07 04:26 | 54.23015 | 171.30977 | 32575 ft | 511 kts | 29° |
| 2026-05-07 04:26 | 54.29246 | 171.36760 | 32574 ft | 511 kts | 29° |
| 2026-05-07 04:27 | 54.35440 | 171.42529 | 32574 ft | 511 kts | 29° |
| 2026-05-07 04:27 | 54.41644 | 171.48325 | 32579 ft | 509 kts | 30° |
| 2026-05-07 04:28 | 54.47850 | 171.54144 | 32585 ft | 510 kts | 30° |
| 2026-05-07 04:28 | 54.54065 | 171.59993 | 32589 ft | 510 kts | 30° |
| 2026-05-07 04:29 | 54.60269 | 171.65852 | 32585 ft | 510 kts | 31° |
| 2026-05-07 04:29 | 54.66487 | 171.71745 | 32579 ft | 510 kts | 31° |
| 2026-05-07 04:30 | 54.72675 | 171.77629 | 32579 ft | 510 kts | 31° |
| 2026-05-07 04:30 | 54.78817 | 171.83491 | 32580 ft | 508 kts | 31° |
| 2026-05-07 04:31 | 54.85007 | 171.89424 | 32582 ft | 508 kts | 31° |
| 2026-05-07 04:31 | 54.91133 | 171.95396 | 32577 ft | 506 kts | 34° |
| 2026-05-07 04:32 | 54.96683 | 172.02647 | 32596 ft | 501 kts | 44° |
| 2026-05-07 04:32 | 55.01837 | 172.10742 | 32604 ft | 501 kts | 45° |
| 2026-05-07 04:33 | 55.06990 | 172.18924 | 32610 ft | 501 kts | 45° |
| 2026-05-07 04:33 | 55.12125 | 172.27095 | 32612 ft | 502 kts | 45° |
| 2026-05-07 04:34 | 55.17269 | 172.35300 | 32608 ft | 501 kts | 45° |
| 2026-05-07 04:34 | 55.22375 | 172.43472 | 32616 ft | 500 kts | 45° |
| 2026-05-07 04:35 | 55.27480 | 172.51674 | 32615 ft | 499 kts | 45° |
| 2026-05-07 04:35 | 55.32600 | 172.59930 | 32620 ft | 499 kts | 45° |
| 2026-05-07 04:36 | 55.37661 | 172.68123 | 32633 ft | 499 kts | 46° |
| 2026-05-07 04:36 | 55.42765 | 172.76413 | 32618 ft | 498 kts | 46° |
| 2026-05-07 04:37 | 55.47827 | 172.84666 | 32635 ft | 498 kts | 46° |
| 2026-05-07 04:37 | 55.52889 | 172.92949 | 32650 ft | 497 kts | 47° |
| 2026-05-07 04:38 | 55.57928 | 173.01225 | 32641 ft | 497 kts | 47° |
| 2026-05-07 04:38 | 55.62956 | 173.09514 | 32650 ft | 497 kts | 47° |
| 2026-05-07 04:39 | 55.67990 | 173.17842 | 32659 ft | 497 kts | 47° |
| 2026-05-07 04:39 | 55.73016 | 173.26186 | 32674 ft | 497 kts | 47° |
| 2026-05-07 04:40 | 55.78029 | 173.34543 | 32651 ft | 496 kts | 47° |
| 2026-05-07 04:40 | 55.83030 | 173.42909 | 32664 ft | 495 kts | 47° |
| 2026-05-07 04:41 | 55.88042 | 173.51323 | 32662 ft | 494 kts | 47° |
| 2026-05-07 04:41 | 55.93011 | 173.59700 | 32672 ft | 494 kts | 48° |
| 2026-05-07 04:42 | 55.97969 | 173.68083 | 32677 ft | 493 kts | 49° |
| 2026-05-07 04:42 | 56.02918 | 173.76488 | 32670 ft | 492 kts | 49° |
| 2026-05-07 04:43 | 56.07863 | 173.84917 | 32691 ft | 493 kts | 49° |
| 2026-05-07 04:43 | 56.12783 | 173.93335 | 32686 ft | 492 kts | 49° |
| 2026-05-07 04:44 | 56.17722 | 174.01811 | 32696 ft | 491 kts | 50° |
| 2026-05-07 04:44 | 56.22636 | 174.10283 | 32694 ft | 492 kts | 50° |
| 2026-05-07 04:45 | 56.27528 | 174.18744 | 32712 ft | 490 kts | 50° |
| 2026-05-07 04:45 | 56.32406 | 174.27216 | 32718 ft | 490 kts | 50° |
| 2026-05-07 04:46 | 56.37284 | 174.35716 | 32719 ft | 489 kts | 50° |
| 2026-05-07 04:46 | 56.42153 | 174.44235 | 32714 ft | 489 kts | 50° |
| 2026-05-07 04:47 | 56.47000 | 174.52748 | 32724 ft | 489 kts | 50° |
| 2026-05-07 04:47 | 56.51875 | 174.61340 | 32723 ft | 488 kts | 50° |
| 2026-05-07 04:48 | 56.56688 | 174.69855 | 32727 ft | 486 kts | 51° |
| 2026-05-07 04:48 | 56.61491 | 174.78387 | 32751 ft | 485 kts | 51° |
| 2026-05-07 04:49 | 56.66282 | 174.86925 | 32749 ft | 484 kts | 51° |
| 2026-05-07 04:49 | 56.71067 | 174.95491 | 32756 ft | 485 kts | 52° |
| 2026-05-07 04:50 | 56.75857 | 175.04092 | 32752 ft | 484 kts | 52° |
| 2026-05-07 04:50 | 56.80612 | 175.12666 | 32765 ft | 483 kts | 52° |
| 2026-05-07 04:51 | 56.85363 | 175.21265 | 32759 ft | 483 kts | 52° |
| 2026-05-07 04:51 | 56.90112 | 175.29890 | 32775 ft | 481 kts | 52° |
| 2026-05-07 04:52 | 56.94831 | 175.38498 | 32791 ft | 481 kts | 52° |
| 2026-05-07 04:52 | 56.99541 | 175.47125 | 32782 ft | 482 kts | 52° |
| 2026-05-07 04:53 | 57.04269 | 175.55812 | 32775 ft | 481 kts | 52° |
| 2026-05-07 04:53 | 57.08973 | 175.64488 | 32784 ft | 481 kts | 52° |
| 2026-05-07 04:54 | 57.13643 | 175.73135 | 32780 ft | 480 kts | 53° |
| 2026-05-07 04:54 | 57.18328 | 175.81844 | 32793 ft | 481 kts | 53° |
| 2026-05-07 04:55 | 57.23008 | 175.90581 | 32797 ft | 481 kts | 53° |
| 2026-05-07 04:55 | 57.27685 | 175.99338 | 32800 ft | 480 kts | 53° |
| 2026-05-07 04:56 | 57.32363 | 176.08133 | 32796 ft | 481 kts | 53° |
| 2026-05-07 04:56 | 57.37005 | 176.16899 | 32820 ft | 480 kts | 52° |
| 2026-05-07 04:57 | 57.41686 | 176.25774 | 32831 ft | 481 kts | 53° |
| 2026-05-07 04:57 | 57.46346 | 176.34644 | 32820 ft | 480 kts | 53° |
| 2026-05-07 04:58 | 57.50995 | 176.43527 | 32830 ft | 482 kts | 52° |
| 2026-05-07 04:58 | 57.55667 | 176.52292 | 32835 ft | 482 kts | 52° |
| 2026-05-07 04:59 | 57.60399 | 176.61174 | 32848 ft | 483 kts | 52° |
| 2026-05-07 04:59 | 57.65122 | 176.70081 | 32864 ft | 482 kts | 52° |
| 2026-05-07 05:00 | 57.69814 | 176.78966 | 32872 ft | 482 kts | 52° |
| 2026-05-07 05:00 | 57.74479 | 176.87843 | 32863 ft | 483 kts | 53° |
| 2026-05-07 05:01 | 57.79163 | 176.96788 | 32869 ft | 483 kts | 52° |
| 2026-05-07 05:01 | 57.83837 | 177.05745 | 32854 ft | 483 kts | 52° |
| 2026-05-07 05:02 | 57.88538 | 177.14796 | 32873 ft | 484 kts | 52° |
| 2026-05-07 05:02 | 57.93204 | 177.23831 | 32880 ft | 485 kts | 52° |
| 2026-05-07 05:03 | 57.97895 | 177.32938 | 32892 ft | 485 kts | 52° |
| 2026-05-07 05:03 | 58.02541 | 177.41988 | 32880 ft | 484 kts | 52° |
| 2026-05-07 05:04 | 58.07215 | 177.51125 | 32885 ft | 484 kts | 52° |
| 2026-05-07 05:04 | 58.11848 | 177.60249 | 32876 ft | 486 kts | 52° |
| 2026-05-07 05:05 | 58.16509 | 177.69440 | 32896 ft | 484 kts | 53° |
| 2026-05-07 05:05 | 58.21161 | 177.78656 | 32911 ft | 484 kts | 52° |
| 2026-05-07 05:06 | 58.25784 | 177.87856 | 32913 ft | 485 kts | 52° |
| 2026-05-07 05:06 | 58.30421 | 177.97122 | 32917 ft | 485 kts | 52° |
| 2026-05-07 05:07 | 58.35068 | 178.06447 | 32928 ft | 487 kts | 52° |
| 2026-05-07 05:07 | 58.39672 | 178.15720 | 32936 ft | 486 kts | 52° |
| 2026-05-07 05:08 | 58.44318 | 178.25111 | 32935 ft | 485 kts | 52° |
| 2026-05-07 05:08 | 58.48898 | 178.34419 | 32933 ft | 485 kts | 52° |
| 2026-05-07 05:09 | 58.53514 | 178.43829 | 32933 ft | 486 kts | 52° |
| 2026-05-07 05:09 | 58.58106 | 178.53238 | 32944 ft | 488 kts | 52° |
| 2026-05-07 05:10 | 58.62707 | 178.62694 | 32947 ft | 485 kts | 52° |
| 2026-05-07 05:10 | 58.67308 | 178.72194 | 32956 ft | 485 kts | 52° |
| 2026-05-07 05:11 | 58.71862 | 178.81639 | 32962 ft | 486 kts | 52° |
| 2026-05-07 05:11 | 58.76457 | 178.91205 | 32962 ft | 486 kts | 52° |
| 2026-05-07 05:12 | 58.80992 | 179.00687 | 32965 ft | 486 kts | 52° |
| 2026-05-07 05:12 | 58.85572 | 179.10303 | 32974 ft | 486 kts | 52° |
| 2026-05-07 05:13 | 58.90128 | 179.19910 | 32974 ft | 487 kts | 51° |
| 2026-05-07 05:13 | 58.94662 | 179.29513 | 32974 ft | 487 kts | 51° |
| 2026-05-07 05:14 | 58.99203 | 179.39168 | 32985 ft | 488 kts | 51° |
| 2026-05-07 05:14 | 59.03772 | 179.48923 | 32984 ft | 488 kts | 51° |
| 2026-05-07 05:15 | 59.08290 | 179.58615 | 32987 ft | 488 kts | 51° |
| 2026-05-07 05:15 | 59.12814 | 179.68355 | 32989 ft | 487 kts | 52° |
| 2026-05-07 05:16 | 59.17336 | 179.78134 | 32997 ft | 486 kts | 52° |
| 2026-05-07 05:16 | 59.21842 | 179.87921 | 33010 ft | 487 kts | 52° |
| 2026-05-07 05:17 | 59.26331 | 179.97714 | 33012 ft | 487 kts | 51° |
| 2026-05-07 05:17 | 59.30843 | -179.92401 | 33013 ft | 487 kts | 51° |
| 2026-05-07 05:18 | 59.35328 | -179.82533 | 33018 ft | 487 kts | 51° |
| 2026-05-07 05:18 | 59.39783 | -179.72685 | 33022 ft | 487 kts | 51° |
| 2026-05-07 05:19 | 59.44271 | -179.62729 | 33027 ft | 486 kts | 51° |
| 2026-05-07 05:19 | 59.48726 | -179.52800 | 33028 ft | 485 kts | 51° |
| 2026-05-07 05:20 | 59.53145 | -179.42908 | 33037 ft | 485 kts | 51° |
| 2026-05-07 05:20 | 59.57596 | -179.32903 | 33039 ft | 485 kts | 51° |
| 2026-05-07 05:21 | 59.64195 | -179.17981 | 33039 ft | 485 kts | 51° |
| 2026-05-07 05:22 | 59.68614 | -179.07938 | 33045 ft | 486 kts | 51° |
| 2026-05-07 05:22 | 59.73027 | -178.97864 | 33049 ft | 485 kts | 51° |
| 2026-05-07 05:23 | 59.77412 | -178.87810 | 33048 ft | 484 kts | 51° |
| 2026-05-07 05:23 | 59.81801 | -178.77699 | 33051 ft | 484 kts | 51° |
| 2026-05-07 05:24 | 59.86166 | -178.67603 | 33053 ft | 484 kts | 51° |
| 2026-05-07 05:24 | 59.90522 | -178.57478 | 33052 ft | 484 kts | 50° |
| 2026-05-07 05:25 | 59.94864 | -178.47343 | 33057 ft | 483 kts | 51° |
| 2026-05-07 05:25 | 59.99198 | -178.37183 | 33057 ft | 482 kts | 51° |
| 2026-05-07 05:26 | 60.03524 | -178.26993 | 33058 ft | 483 kts | 51° |
| 2026-05-07 05:26 | 60.07865 | -178.16722 | 33051 ft | 483 kts | 51° |
| 2026-05-07 05:27 | 60.12159 | -178.06516 | 33064 ft | 482 kts | 51° |
| 2026-05-07 05:27 | 60.16445 | -177.96277 | 33070 ft | 482 kts | 51° |
| 2026-05-07 05:28 | 60.20387 | -177.85513 | 33080 ft | 480 kts | 60° |
| 2026-05-07 05:28 | 60.23576 | -177.73700 | 33073 ft | 480 kts | 63° |
| 2026-05-07 05:29 | 60.26532 | -177.61706 | 33065 ft | 480 kts | 64° |
| 2026-05-07 05:29 | 60.29512 | -177.49750 | 33082 ft | 479 kts | 63° |
| 2026-05-07 05:30 | 60.32538 | -177.37860 | 33087 ft | 479 kts | 62° |
| 2026-05-07 05:30 | 60.35549 | -177.25975 | 33089 ft | 478 kts | 63° |
| 2026-05-07 05:31 | 60.38554 | -177.14035 | 33083 ft | 477 kts | 63° |
| 2026-05-07 05:31 | 60.41543 | -177.02084 | 33089 ft | 478 kts | 63° |
| 2026-05-07 05:32 | 60.44534 | -176.90077 | 33097 ft | 479 kts | 63° |
| 2026-05-07 05:32 | 60.47501 | -176.78088 | 33092 ft | 477 kts | 63° |
| 2026-05-07 05:33 | 60.50441 | -176.66136 | 33082 ft | 476 kts | 63° |
| 2026-05-07 05:33 | 60.53387 | -176.54102 | 33081 ft | 477 kts | 63° |
| 2026-05-07 05:34 | 60.56307 | -176.42102 | 33085 ft | 476 kts | 63° |
| 2026-05-07 05:34 | 60.59209 | -176.30118 | 33102 ft | 475 kts | 64° |
| 2026-05-07 05:35 | 60.62098 | -176.18120 | 33109 ft | 475 kts | 64° |
| 2026-05-07 05:35 | 60.64994 | -176.06018 | 33106 ft | 474 kts | 64° |
| 2026-05-07 05:36 | 60.67844 | -175.94051 | 33103 ft | 474 kts | 64° |
| 2026-05-07 05:36 | 60.70711 | -175.81941 | 33091 ft | 473 kts | 64° |
| 2026-05-07 05:37 | 60.73536 | -175.69939 | 33095 ft | 473 kts | 64° |
| 2026-05-07 05:37 | 60.76371 | -175.57831 | 33103 ft | 472 kts | 64° |
| 2026-05-07 05:38 | 60.79172 | -175.45799 | 33106 ft | 471 kts | 64° |
| 2026-05-07 05:38 | 60.81975 | -175.33694 | 33101 ft | 471 kts | 64° |
| 2026-05-07 05:39 | 60.84757 | -175.21616 | 33093 ft | 472 kts | 64° |
| 2026-05-07 05:39 | 60.87543 | -175.09435 | 33090 ft | 470 kts | 64° |
| 2026-05-07 05:40 | 60.90284 | -174.97394 | 33104 ft | 469 kts | 64° |
| 2026-05-07 05:40 | 60.93021 | -174.85307 | 33091 ft | 468 kts | 64° |
| 2026-05-07 05:41 | 60.95753 | -174.73167 | 33098 ft | 469 kts | 64° |
| 2026-05-07 05:41 | 60.98463 | -174.61058 | 33091 ft | 469 kts | 64° |
| 2026-05-07 05:42 | 61.01180 | -174.48839 | 33097 ft | 469 kts | 64° |
| 2026-05-07 05:42 | 61.03861 | -174.36717 | 33095 ft | 467 kts | 64° |
| 2026-05-07 05:43 | 61.06538 | -174.24548 | 33095 ft | 467 kts | 64° |
| 2026-05-07 05:43 | 61.09195 | -174.12402 | 33094 ft | 468 kts | 64° |
| 2026-05-07 05:44 | 61.11853 | -174.00176 | 33101 ft | 468 kts | 64° |
| 2026-05-07 05:44 | 61.14500 | -173.87926 | 33099 ft | 468 kts | 64° |
| 2026-05-07 05:45 | 61.17148 | -173.75603 | 33097 ft | 468 kts | 64° |
| 2026-05-07 05:45 | 61.19760 | -173.63374 | 33097 ft | 467 kts | 64° |
| 2026-05-07 05:46 | 61.22370 | -173.51083 | 33097 ft | 467 kts | 64° |
| 2026-05-07 05:46 | 61.24969 | -173.38773 | 33098 ft | 468 kts | 64° |
| 2026-05-07 05:47 | 61.27565 | -173.26398 | 33103 ft | 468 kts | 64° |
| 2026-05-07 05:47 | 61.30132 | -173.14096 | 33109 ft | 467 kts | 64° |
| 2026-05-07 05:48 | 61.32707 | -173.01672 | 33114 ft | 467 kts | 64° |
| 2026-05-07 05:48 | 61.35258 | -172.89288 | 33114 ft | 467 kts | 64° |
| 2026-05-07 05:49 | 61.37793 | -172.76916 | 33112 ft | 467 kts | 64° |
| 2026-05-07 05:49 | 61.40326 | -172.64475 | 33108 ft | 468 kts | 64° |
| 2026-05-07 05:50 | 61.42839 | -172.52060 | 33107 ft | 468 kts | 64° |
| 2026-05-07 05:50 | 61.45353 | -172.39560 | 33108 ft | 468 kts | 64° |
| 2026-05-07 05:51 | 61.47852 | -172.27052 | 33108 ft | 467 kts | 65° |
| 2026-05-07 05:51 | 61.50337 | -172.14551 | 33106 ft | 467 kts | 65° |
| 2026-05-07 05:52 | 61.52806 | -172.02042 | 33108 ft | 468 kts | 65° |
| 2026-05-07 05:52 | 61.55281 | -171.89429 | 33105 ft | 468 kts | 64° |
| 2026-05-07 05:53 | 61.57725 | -171.76888 | 33104 ft | 468 kts | 64° |
| 2026-05-07 05:53 | 61.60170 | -171.64264 | 33106 ft | 468 kts | 64° |
| 2026-05-07 05:54 | 61.62599 | -171.51643 | 33105 ft | 467 kts | 64° |
| 2026-05-07 05:54 | 61.65028 | -171.38950 | 33102 ft | 468 kts | 64° |
| 2026-05-07 05:55 | 61.67421 | -171.26363 | 33105 ft | 469 kts | 65° |
| 2026-05-07 05:55 | 61.69834 | -171.13585 | 33102 ft | 469 kts | 65° |
| 2026-05-07 05:56 | 61.72223 | -171.00853 | 33102 ft | 470 kts | 65° |
| 2026-05-07 05:56 | 61.74592 | -170.88138 | 33100 ft | 469 kts | 64° |
| 2026-05-07 05:57 | 61.76963 | -170.75323 | 33097 ft | 468 kts | 64° |
| 2026-05-07 05:57 | 61.79311 | -170.62566 | 33097 ft | 468 kts | 64° |
| 2026-05-07 05:58 | 61.81640 | -170.49828 | 33094 ft | 468 kts | 64° |
| 2026-05-07 05:58 | 61.83967 | -170.37004 | 33094 ft | 468 kts | 64° |
| 2026-05-07 05:59 | 61.86282 | -170.24161 | 33094 ft | 469 kts | 65° |
| 2026-05-07 05:59 | 61.88574 | -170.11360 | 33093 ft | 468 kts | 65° |
| 2026-05-07 06:00 | 61.90871 | -169.98508 | 33096 ft | 467 kts | 64° |
| 2026-05-07 06:00 | 61.93230 | -169.85675 | 33093 ft | 468 kts | 64° |
| 2026-05-07 06:01 | 61.95565 | -169.72902 | 33089 ft | 467 kts | 64° |
| 2026-05-07 06:01 | 61.97884 | -169.60132 | 33090 ft | 465 kts | 64° |
| 2026-05-07 06:02 | 62.00201 | -169.47282 | 33092 ft | 464 kts | 64° |
| 2026-05-07 06:02 | 62.02495 | -169.34473 | 33089 ft | 465 kts | 65° |
| 2026-05-07 06:03 | 62.04769 | -169.21675 | 33095 ft | 466 kts | 65° |
| 2026-05-07 06:03 | 62.07055 | -169.08731 | 33091 ft | 466 kts | 64° |
| 2026-05-07 06:04 | 62.09307 | -168.95886 | 33095 ft | 466 kts | 64° |
| 2026-05-07 06:04 | 62.11561 | -168.82945 | 33109 ft | 466 kts | 64° |
| 2026-05-07 06:05 | 62.13800 | -168.69998 | 33110 ft | 466 kts | 64° |
| 2026-05-07 06:05 | 62.16017 | -168.57085 | 33106 ft | 466 kts | 64° |
| 2026-05-07 06:06 | 62.18224 | -168.44142 | 33109 ft | 465 kts | 64° |
| 2026-05-07 06:06 | 62.20428 | -168.31125 | 33108 ft | 466 kts | 65° |
| 2026-05-07 06:07 | 62.22613 | -168.18127 | 33108 ft | 466 kts | 65° |
| 2026-05-07 06:07 | 62.24795 | -168.05061 | 33106 ft | 467 kts | 64° |
| 2026-05-07 06:08 | 62.26952 | -167.92047 | 33089 ft | 466 kts | 64° |
| 2026-05-07 06:08 | 62.29107 | -167.78950 | 33088 ft | 466 kts | 64° |
| 2026-05-07 06:09 | 62.31253 | -167.65820 | 33081 ft | 466 kts | 64° |
| 2026-05-07 06:09 | 62.33369 | -167.52769 | 33086 ft | 466 kts | 64° |
| 2026-05-07 06:10 | 62.35493 | -167.39586 | 33090 ft | 467 kts | 64° |
| 2026-05-07 06:10 | 62.37602 | -167.26395 | 33086 ft | 469 kts | 65° |
| 2026-05-07 06:11 | 62.39704 | -167.13145 | 33086 ft | 469 kts | 65° |
| 2026-05-07 06:11 | 62.41791 | -166.99898 | 33088 ft | 469 kts | 65° |
| 2026-05-07 06:12 | 62.43868 | -166.86614 | 33087 ft | 470 kts | 65° |
| 2026-05-07 06:12 | 62.45935 | -166.73285 | 33086 ft | 469 kts | 65° |
| 2026-05-07 06:13 | 62.47996 | -166.59901 | 33088 ft | 470 kts | 65° |
| 2026-05-07 06:13 | 62.50039 | -166.46533 | 33086 ft | 471 kts | 65° |
| 2026-05-07 06:14 | 62.52066 | -166.33166 | 33077 ft | 471 kts | 65° |
| 2026-05-07 06:14 | 62.54096 | -166.19685 | 33083 ft | 473 kts | 65° |
| 2026-05-07 06:15 | 62.56119 | -166.06139 | 33078 ft | 475 kts | 65° |
| 2026-05-07 06:15 | 62.58118 | -165.92642 | 33074 ft | 474 kts | 65° |
| 2026-05-07 06:16 | 62.60115 | -165.79053 | 33080 ft | 475 kts | 65° |
| 2026-05-07 06:16 | 62.62101 | -165.65433 | 33083 ft | 474 kts | 65° |
| 2026-05-07 06:17 | 62.64077 | -165.51772 | 33084 ft | 475 kts | 65° |
| 2026-05-07 06:17 | 62.66035 | -165.38121 | 33082 ft | 475 kts | 65° |
| 2026-05-07 06:18 | 62.67991 | -165.24382 | 33091 ft | 478 kts | 66° |
| 2026-05-07 06:18 | 62.69924 | -165.10686 | 33088 ft | 478 kts | 66° |
| 2026-05-07 06:19 | 62.71859 | -164.96851 | 33096 ft | 478 kts | 66° |
| 2026-05-07 06:19 | 62.73780 | -164.83020 | 33098 ft | 479 kts | 66° |
| 2026-05-07 06:20 | 62.75688 | -164.69139 | 33089 ft | 479 kts | 66° |
| 2026-05-07 06:20 | 62.77573 | -164.55309 | 33092 ft | 479 kts | 66° |
| 2026-05-07 06:21 | 62.78981 | -164.41007 | 33092 ft | 487 kts | 75° |
| 2026-05-07 06:21 | 62.79774 | -164.26219 | 33067 ft | 493 kts | 78° |
| 2026-05-07 06:22 | 62.80329 | -164.11317 | 33061 ft | 494 kts | 78° |
| 2026-05-07 06:22 | 62.81333 | -163.88994 | 33064 ft | 494 kts | 77° |
| 2026-05-07 06:23 | 62.82021 | -163.74072 | 33053 ft | 496 kts | 77° |
| 2026-05-07 06:23 | 62.82687 | -163.59209 | 33060 ft | 495 kts | 77° |
| 2026-05-07 06:24 | 62.83341 | -163.44212 | 33055 ft | 497 kts | 77° |
| 2026-05-07 06:24 | 62.83979 | -163.29207 | 33060 ft | 499 kts | 78° |
| 2026-05-07 06:25 | 62.84607 | -163.14069 | 33062 ft | 502 kts | 79° |
| 2026-05-07 06:25 | 62.85216 | -162.98920 | 33049 ft | 503 kts | 79° |
| 2026-05-07 06:26 | 62.85810 | -162.83711 | 33035 ft | 502 kts | 79° |
| 2026-05-07 06:26 | 62.86385 | -162.68573 | 33006 ft | 502 kts | 79° |
| 2026-05-07 06:27 | 62.86947 | -162.53378 | 33001 ft | 503 kts | 79° |
| 2026-05-07 06:27 | 62.87495 | -162.38106 | 32996 ft | 505 kts | 79° |
| 2026-05-07 06:28 | 62.88027 | -162.22809 | 33007 ft | 506 kts | 81° |
| 2026-05-07 06:28 | 62.88544 | -162.07475 | 33010 ft | 508 kts | 81° |
| 2026-05-07 06:29 | 62.89041 | -161.92200 | 32999 ft | 507 kts | 81° |
| 2026-05-07 06:29 | 62.89523 | -161.76839 | 33005 ft | 507 kts | 81° |
| 2026-05-07 06:30 | 62.89992 | -161.61394 | 32990 ft | 508 kts | 81° |
| 2026-05-07 06:30 | 62.90443 | -161.45967 | 32964 ft | 509 kts | 81° |
| 2026-05-07 06:31 | 62.90876 | -161.30588 | 32987 ft | 509 kts | 82° |
| 2026-05-07 06:31 | 62.91296 | -161.15074 | 33017 ft | 511 kts | 82° |
| 2026-05-07 06:32 | 62.91701 | -160.99542 | 33025 ft | 512 kts | 82° |
| 2026-05-07 06:32 | 62.92086 | -160.83998 | 33029 ft | 512 kts | 83° |
| 2026-05-07 06:33 | 62.92453 | -160.68507 | 33033 ft | 512 kts | 83° |
| 2026-05-07 06:33 | 62.92806 | -160.52908 | 33030 ft | 513 kts | 83° |
| 2026-05-07 06:34 | 62.93140 | -160.37370 | 33013 ft | 514 kts | 83° |
| 2026-05-07 06:34 | 62.93460 | -160.21738 | 33001 ft | 514 kts | 84° |
| 2026-05-07 06:35 | 62.93761 | -160.06155 | 32997 ft | 514 kts | 84° |
| 2026-05-07 06:35 | 62.94046 | -159.90562 | 33002 ft | 514 kts | 84° |
| 2026-05-07 06:36 | 62.94313 | -159.74861 | 33036 ft | 514 kts | 84° |
| 2026-05-07 06:36 | 62.94564 | -159.59203 | 33028 ft | 516 kts | 84° |
| 2026-05-07 06:37 | 62.94796 | -159.43602 | 33008 ft | 516 kts | 84° |
| 2026-05-07 06:37 | 62.95011 | -159.27904 | 33019 ft | 517 kts | 85° |
| 2026-05-07 06:38 | 62.95211 | -159.12198 | 33012 ft | 517 kts | 85° |
| 2026-05-07 06:38 | 62.95392 | -158.96495 | 33020 ft | 517 kts | 85° |
| 2026-05-07 06:39 | 62.95556 | -158.80696 | 33037 ft | 518 kts | 85° |
| 2026-05-07 06:39 | 62.95704 | -158.64918 | 33035 ft | 519 kts | 86° |
| 2026-05-07 06:40 | 62.95834 | -158.49176 | 33041 ft | 519 kts | 86° |
| 2026-05-07 06:40 | 62.95944 | -158.33386 | 33021 ft | 519 kts | 87° |
| 2026-05-07 06:41 | 62.96039 | -158.17638 | 33030 ft | 518 kts | 87° |
| 2026-05-07 06:41 | 62.96116 | -158.01855 | 33024 ft | 516 kts | 87° |
| 2026-05-07 06:42 | 62.96175 | -157.86147 | 33024 ft | 517 kts | 87° |
| 2026-05-07 06:42 | 62.96215 | -157.70476 | 33026 ft | 518 kts | 87° |
| 2026-05-07 06:43 | 62.96240 | -157.54645 | 33037 ft | 519 kts | 87° |
| 2026-05-07 06:43 | 62.96246 | -157.38867 | 33025 ft | 519 kts | 87° |
| 2026-05-07 06:44 | 62.96234 | -157.23077 | 33005 ft | 520 kts | 89° |
| 2026-05-07 06:44 | 62.96206 | -157.07188 | 32993 ft | 519 kts | 88° |
| 2026-05-07 06:45 | 62.96159 | -156.91391 | 32979 ft | 520 kts | 88° |
| 2026-05-07 06:45 | 62.96095 | -156.75647 | 32991 ft | 520 kts | 89° |
| 2026-05-07 06:46 | 62.96013 | -156.59830 | 33002 ft | 520 kts | 89° |
| 2026-05-07 06:46 | 62.95914 | -156.43986 | 32993 ft | 521 kts | 89° |
| 2026-05-07 06:47 | 62.95795 | -156.28152 | 32981 ft | 521 kts | 90° |
| 2026-05-07 06:47 | 62.95660 | -156.12230 | 32987 ft | 519 kts | 90° |
| 2026-05-07 06:48 | 62.95510 | -155.96486 | 33013 ft | 519 kts | 90° |
| 2026-05-07 06:48 | 62.95338 | -155.80711 | 33009 ft | 520 kts | 90° |
| 2026-05-07 06:49 | 62.95150 | -155.64891 | 33004 ft | 519 kts | 90° |
| 2026-05-07 06:49 | 62.94725 | -155.49081 | 33008 ft | 520 kts | 93° |
| 2026-05-07 06:50 | 62.94033 | -155.33403 | 33002 ft | 521 kts | 96° |
| 2026-05-07 06:50 | 62.93283 | -155.17621 | 33000 ft | 521 kts | 95° |
| 2026-05-07 06:51 | 62.92572 | -155.01874 | 33003 ft | 520 kts | 95° |
| 2026-05-07 06:51 | 62.91852 | -154.86200 | 32999 ft | 520 kts | 95° |
| 2026-05-07 06:52 | 62.91117 | -154.70485 | 32991 ft | 519 kts | 95° |
| 2026-05-07 06:52 | 62.90366 | -154.54834 | 32996 ft | 520 kts | 95° |
| 2026-05-07 06:53 | 62.89591 | -154.39061 | 32998 ft | 520 kts | 95° |
| 2026-05-07 06:53 | 62.88802 | -154.23346 | 32995 ft | 520 kts | 96° |
| 2026-05-07 06:54 | 62.88000 | -154.07669 | 32998 ft | 520 kts | 96° |
| 2026-05-07 06:54 | 62.87181 | -153.92068 | 32997 ft | 520 kts | 96° |
| 2026-05-07 06:55 | 62.86340 | -153.76376 | 32989 ft | 520 kts | 96° |
| 2026-05-07 06:55 | 62.85482 | -153.60700 | 32981 ft | 519 kts | 96° |
| 2026-05-07 06:56 | 62.84618 | -153.45184 | 32978 ft | 520 kts | 96° |
| 2026-05-07 06:56 | 62.83722 | -153.29474 | 32970 ft | 521 kts | 97° |
| 2026-05-07 06:57 | 62.82813 | -153.13820 | 32956 ft | 520 kts | 97° |
| 2026-05-07 06:57 | 62.81891 | -152.98265 | 32935 ft | 520 kts | 98° |
| 2026-05-07 06:58 | 62.80944 | -152.82611 | 32915 ft | 520 kts | 97° |
| 2026-05-07 06:58 | 62.79985 | -152.67041 | 32886 ft | 519 kts | 97° |
| 2026-05-07 06:59 | 62.79012 | -152.51508 | 32896 ft | 519 kts | 97° |
| 2026-05-07 06:59 | 62.78020 | -152.35963 | 32892 ft | 519 kts | 97° |
| 2026-05-07 07:00 | 62.77006 | -152.20334 | 32889 ft | 520 kts | 98° |
| 2026-05-07 07:00 | 62.75976 | -152.04776 | 32849 ft | 521 kts | 99° |
| 2026-05-07 07:01 | 62.74928 | -151.89188 | 32805 ft | 520 kts | 99° |
| 2026-05-07 07:01 | 62.73867 | -151.73712 | 32790 ft | 520 kts | 99° |
| 2026-05-07 07:02 | 62.72789 | -151.58197 | 32836 ft | 520 kts | 99° |
| 2026-05-07 07:02 | 62.71687 | -151.42647 | 32894 ft | 520 kts | 99° |
| 2026-05-07 07:03 | 62.70579 | -151.27206 | 32844 ft | 521 kts | 100° |
| 2026-05-07 07:03 | 62.69441 | -151.11639 | 32859 ft | 519 kts | 100° |
| 2026-05-07 07:04 | 62.68299 | -150.96246 | 32884 ft | 519 kts | 100° |
| 2026-05-07 07:04 | 62.67133 | -150.80777 | 32924 ft | 520 kts | 100° |
| 2026-05-07 07:05 | 62.65944 | -150.65263 | 32941 ft | 520 kts | 100° |
| 2026-05-07 07:05 | 62.64745 | -150.49832 | 32943 ft | 521 kts | 100° |
| 2026-05-07 07:06 | 62.63528 | -150.34401 | 32956 ft | 520 kts | 101° |
| 2026-05-07 07:06 | 62.62293 | -150.18968 | 32960 ft | 520 kts | 101° |
| 2026-05-07 07:07 | 62.61041 | -150.03525 | 32945 ft | 521 kts | 101° |
| 2026-05-07 07:07 | 62.59767 | -149.88078 | 32931 ft | 521 kts | 101° |
| 2026-05-07 07:08 | 62.58482 | -149.72694 | 32933 ft | 522 kts | 101° |
| 2026-05-07 07:08 | 62.57175 | -149.57275 | 32901 ft | 522 kts | 101° |
| 2026-05-07 07:09 | 62.55854 | -149.41885 | 32869 ft | 522 kts | 101° |
| 2026-05-07 07:09 | 62.54516 | -149.26504 | 32883 ft | 522 kts | 102° |
| 2026-05-07 07:10 | 62.53156 | -149.11110 | 32882 ft | 523 kts | 102° |
| 2026-05-07 07:10 | 62.51783 | -148.95754 | 32859 ft | 522 kts | 102° |
| 2026-05-07 07:11 | 62.50393 | -148.80394 | 32891 ft | 521 kts | 102° |
| 2026-05-07 07:11 | 62.48991 | -148.65118 | 32914 ft | 522 kts | 102° |
| 2026-05-07 07:12 | 62.47558 | -148.49725 | 32867 ft | 523 kts | 102° |
| 2026-05-07 07:12 | 62.46117 | -148.34401 | 32849 ft | 523 kts | 103° |
| 2026-05-07 07:13 | 62.44656 | -148.19093 | 32838 ft | 523 kts | 103° |
| 2026-05-07 07:13 | 62.43182 | -148.03821 | 32823 ft | 523 kts | 103° |
| 2026-05-07 07:14 | 62.41686 | -147.88503 | 32823 ft | 523 kts | 103° |
| 2026-05-07 07:14 | 62.40171 | -147.73190 | 32849 ft | 523 kts | 103° |
| 2026-05-07 07:15 | 62.38640 | -147.57906 | 32864 ft | 523 kts | 103° |
| 2026-05-07 07:15 | 62.37101 | -147.42709 | 32870 ft | 524 kts | 103° |
| 2026-05-07 07:16 | 62.35535 | -147.27431 | 32858 ft | 524 kts | 104° |
| 2026-05-07 07:16 | 62.33958 | -147.12221 | 32868 ft | 523 kts | 104° |
| 2026-05-07 07:17 | 62.32360 | -146.96994 | 32878 ft | 524 kts | 104° |
| 2026-05-07 07:17 | 62.30737 | -146.81694 | 32887 ft | 525 kts | 104° |
| 2026-05-07 07:18 | 62.29108 | -146.66516 | 32899 ft | 525 kts | 104° |
| 2026-05-07 07:18 | 62.27451 | -146.51266 | 32903 ft | 524 kts | 104° |
| 2026-05-07 07:19 | 62.25789 | -146.36118 | 32904 ft | 525 kts | 104° |
| 2026-05-07 07:19 | 62.24111 | -146.20990 | 32909 ft | 526 kts | 105° |
| 2026-05-07 07:20 | 62.22404 | -146.05759 | 32910 ft | 526 kts | 105° |
| 2026-05-07 07:20 | 62.20682 | -145.90581 | 32914 ft | 526 kts | 105° |
| 2026-05-07 07:21 | 62.18944 | -145.75407 | 32933 ft | 526 kts | 105° |
| 2026-05-07 07:21 | 62.17198 | -145.60332 | 32950 ft | 526 kts | 105° |
| 2026-05-07 07:22 | 62.15429 | -145.45195 | 32958 ft | 526 kts | 105° |
| 2026-05-07 07:22 | 62.13815 | -145.29994 | 32957 ft | 527 kts | 104° |
| 2026-05-07 07:23 | 62.12295 | -145.14711 | 32943 ft | 527 kts | 104° |
| 2026-05-07 07:23 | 62.10753 | -144.99454 | 32928 ft | 527 kts | 104° |
| 2026-05-07 07:24 | 62.09189 | -144.84258 | 32927 ft | 526 kts | 104° |
| 2026-05-07 07:24 | 62.07601 | -144.69072 | 32935 ft | 527 kts | 104° |
| 2026-05-07 07:25 | 62.05181 | -144.46249 | 32923 ft | 528 kts | 104° |
| 2026-05-07 07:26 | 62.03540 | -144.31020 | 32911 ft | 528 kts | 105° |
| 2026-05-07 07:26 | 62.01889 | -144.15871 | 32856 ft | 529 kts | 105° |
| 2026-05-07 07:27 | 62.00222 | -144.00752 | 32710 ft | 529 kts | 105° |
| 2026-05-07 07:27 | 61.98532 | -143.85603 | 32692 ft | 525 kts | 105° |
| 2026-05-07 07:28 | 61.96838 | -143.70566 | 32808 ft | 529 kts | 105° |
| 2026-05-07 07:28 | 61.95106 | -143.55385 | 32826 ft | 531 kts | 105° |
| 2026-05-07 07:29 | 61.93362 | -143.40254 | 32814 ft | 529 kts | 105° |
| 2026-05-07 07:29 | 61.91602 | -143.25119 | 32804 ft | 529 kts | 106° |
| 2026-05-07 07:30 | 61.89831 | -143.10071 | 32812 ft | 530 kts | 106° |
| 2026-05-07 07:30 | 61.88035 | -142.94971 | 32817 ft | 531 kts | 107° |
| 2026-05-07 07:31 | 61.86212 | -142.79793 | 32818 ft | 531 kts | 106° |
| 2026-05-07 07:31 | 61.84384 | -142.64725 | 32818 ft | 531 kts | 106° |
| 2026-05-07 07:32 | 61.82544 | -142.49730 | 32892 ft | 530 kts | 106° |
| 2026-05-07 07:32 | 61.80685 | -142.34721 | 32907 ft | 531 kts | 107° |
| 2026-05-07 07:33 | 61.78797 | -142.19621 | 32889 ft | 531 kts | 107° |
| 2026-05-07 07:33 | 61.76905 | -142.04646 | 32881 ft | 532 kts | 107° |
| 2026-05-07 07:34 | 61.74990 | -141.89638 | 32862 ft | 531 kts | 107° |
| 2026-05-07 07:34 | 61.73053 | -141.74603 | 32929 ft | 530 kts | 107° |
| 2026-05-07 07:35 | 61.71110 | -141.59672 | 32951 ft | 532 kts | 107° |
| 2026-05-07 07:35 | 61.69155 | -141.44783 | 32938 ft | 532 kts | 107° |
| 2026-05-07 07:36 | 61.67168 | -141.29802 | 32918 ft | 533 kts | 108° |
| 2026-05-07 07:36 | 61.65170 | -141.14859 | 32920 ft | 531 kts | 108° |
| 2026-05-07 07:37 | 61.63163 | -140.99995 | 32919 ft | 534 kts | 108° |
| 2026-05-07 07:37 | 61.61214 | -140.84988 | 32908 ft | 533 kts | 107° |
| 2026-05-07 07:38 | 61.59327 | -140.69974 | 32896 ft | 533 kts | 107° |
| 2026-05-07 07:38 | 61.57422 | -140.54997 | 32941 ft | 534 kts | 107° |
| 2026-05-07 07:39 | 61.55484 | -140.39944 | 32964 ft | 534 kts | 107° |
| 2026-05-07 07:39 | 61.53534 | -140.24970 | 32985 ft | 534 kts | 108° |
| 2026-05-07 07:40 | 61.51570 | -140.10043 | 32994 ft | 536 kts | 108° |
| 2026-05-07 07:40 | 61.49587 | -139.95116 | 32996 ft | 535 kts | 108° |
| 2026-05-07 07:41 | 61.47577 | -139.80135 | 33005 ft | 535 kts | 108° |
| 2026-05-07 07:41 | 61.45561 | -139.65263 | 33032 ft | 536 kts | 108° |
| 2026-05-07 07:42 | 61.43519 | -139.50334 | 32975 ft | 538 kts | 108° |
| 2026-05-07 07:42 | 61.41452 | -139.35355 | 32986 ft | 535 kts | 108° |
| 2026-05-07 07:43 | 61.39392 | -139.20549 | 32992 ft | 536 kts | 109° |
| 2026-05-07 07:43 | 61.37299 | -139.05650 | 32955 ft | 538 kts | 108° |
| 2026-05-07 07:44 | 61.34940 | -138.90929 | 32954 ft | 536 kts | 112° |
| 2026-05-07 07:44 | 61.32341 | -138.76482 | 32944 ft | 535 kts | 114° |
| 2026-05-07 07:45 | 61.29693 | -138.62120 | 32957 ft | 536 kts | 112° |
| 2026-05-07 07:45 | 61.27092 | -138.47630 | 32910 ft | 537 kts | 112° |
| 2026-05-07 07:46 | 61.24473 | -138.33099 | 32879 ft | 538 kts | 113° |
| 2026-05-07 07:46 | 61.21849 | -138.18652 | 32853 ft | 538 kts | 114° |
| 2026-05-07 07:47 | 61.19212 | -138.04237 | 32854 ft | 538 kts | 113° |
| 2026-05-07 07:47 | 61.16556 | -137.89822 | 32859 ft | 538 kts | 113° |
| 2026-05-07 07:48 | 61.13886 | -137.75438 | 32885 ft | 538 kts | 113° |
| 2026-05-07 07:48 | 61.11197 | -137.61060 | 32900 ft | 537 kts | 113° |
| 2026-05-07 07:49 | 61.08495 | -137.46715 | 32902 ft | 538 kts | 114° |
| 2026-05-07 07:49 | 61.05773 | -137.32371 | 32906 ft | 539 kts | 115° |
| 2026-05-07 07:50 | 61.03030 | -137.18022 | 32881 ft | 538 kts | 114° |
| 2026-05-07 07:50 | 61.00286 | -137.03777 | 32906 ft | 539 kts | 114° |
| 2026-05-07 07:51 | 60.97522 | -136.89525 | 32916 ft | 538 kts | 114° |
| 2026-05-07 07:51 | 60.94740 | -136.75281 | 32913 ft | 540 kts | 114° |
| 2026-05-07 07:52 | 60.91926 | -136.60974 | 32922 ft | 539 kts | 114° |
| 2026-05-07 07:52 | 60.89119 | -136.46806 | 32966 ft | 537 kts | 114° |
| 2026-05-07 07:53 | 60.86283 | -136.32599 | 32945 ft | 539 kts | 115° |
| 2026-05-07 07:53 | 60.83453 | -136.18517 | 32942 ft | 539 kts | 115° |
| 2026-05-07 07:54 | 60.80595 | -136.04391 | 32961 ft | 538 kts | 115° |
| 2026-05-07 07:54 | 60.77715 | -135.90253 | 32975 ft | 539 kts | 115° |
| 2026-05-07 07:55 | 60.74831 | -135.76198 | 32966 ft | 540 kts | 115° |
| 2026-05-07 07:55 | 60.71922 | -135.62122 | 32964 ft | 540 kts | 115° |
| 2026-05-07 07:56 | 60.68995 | -135.48038 | 32957 ft | 540 kts | 115° |
| 2026-05-07 07:56 | 60.66061 | -135.34023 | 32967 ft | 540 kts | 116° |
| 2026-05-07 07:57 | 60.63126 | -135.20020 | 32962 ft | 540 kts | 115° |
| 2026-05-07 07:57 | 60.60932 | -135.05438 | 32983 ft | 544 kts | 104° |
| 2026-05-07 07:58 | 60.59414 | -134.90414 | 32968 ft | 546 kts | 103° |
| 2026-05-07 07:58 | 60.57912 | -134.75295 | 32953 ft | 546 kts | 103° |
| 2026-05-07 07:59 | 60.56377 | -134.60229 | 32950 ft | 545 kts | 103° |
| 2026-05-07 07:59 | 60.54819 | -134.45200 | 32977 ft | 546 kts | 103° |
| 2026-05-07 08:00 | 60.53243 | -134.30171 | 33001 ft | 547 kts | 104° |
| 2026-05-07 08:00 | 60.51655 | -134.15224 | 32981 ft | 545 kts | 104° |
| 2026-05-07 08:01 | 60.50045 | -134.00249 | 32933 ft | 546 kts | 104° |
| 2026-05-07 08:01 | 60.48416 | -133.85292 | 32939 ft | 547 kts | 104° |
| 2026-05-07 08:02 | 60.46766 | -133.70306 | 32940 ft | 547 kts | 104° |
| 2026-05-07 08:02 | 60.45101 | -133.55360 | 32960 ft | 546 kts | 104° |
| 2026-05-07 08:03 | 60.43422 | -133.40436 | 32950 ft | 546 kts | 104° |
| 2026-05-07 08:03 | 60.41716 | -133.25455 | 32976 ft | 547 kts | 105° |
| 2026-05-07 08:04 | 60.39995 | -133.10495 | 32928 ft | 546 kts | 105° |
| 2026-05-07 08:04 | 60.38260 | -132.95579 | 32927 ft | 548 kts | 105° |
| 2026-05-07 08:05 | 60.36509 | -132.80688 | 32891 ft | 549 kts | 105° |
| 2026-05-07 08:05 | 60.34748 | -132.65863 | 32930 ft | 547 kts | 105° |
| 2026-05-07 08:06 | 60.32959 | -132.50958 | 32963 ft | 548 kts | 105° |
| 2026-05-07 08:06 | 60.31155 | -132.36089 | 32943 ft | 546 kts | 105° |
| 2026-05-07 08:07 | 60.29339 | -132.21263 | 32917 ft | 547 kts | 107° |
| 2026-05-07 08:07 | 60.27502 | -132.06429 | 32904 ft | 547 kts | 106° |
| 2026-05-07 08:08 | 60.25653 | -131.91647 | 32896 ft | 547 kts | 107° |
| 2026-05-07 08:08 | 60.23793 | -131.76923 | 32920 ft | 547 kts | 107° |
| 2026-05-07 08:09 | 60.21907 | -131.62135 | 32917 ft | 547 kts | 107° |
| 2026-05-07 08:09 | 60.20000 | -131.47321 | 32910 ft | 546 kts | 107° |
| 2026-05-07 08:10 | 60.18089 | -131.32629 | 32905 ft | 547 kts | 107° |
| 2026-05-07 08:10 | 60.16159 | -131.17946 | 32924 ft | 547 kts | 107° |
| 2026-05-07 08:11 | 60.14218 | -131.03305 | 32939 ft | 546 kts | 107° |
| 2026-05-07 08:11 | 60.12256 | -130.88643 | 32954 ft | 547 kts | 108° |
| 2026-05-07 08:12 | 60.10265 | -130.73906 | 32892 ft | 547 kts | 107° |
| 2026-05-07 08:12 | 60.08271 | -130.59291 | 32935 ft | 547 kts | 107° |
| 2026-05-07 08:13 | 60.06251 | -130.44611 | 32921 ft | 549 kts | 107° |
| 2026-05-07 08:13 | 60.04220 | -130.29993 | 32906 ft | 550 kts | 109° |
| 2026-05-07 08:14 | 60.02160 | -130.15288 | 32911 ft | 550 kts | 109° |
| 2026-05-07 08:14 | 59.99989 | -130.00729 | 32911 ft | 548 kts | 113° |
| 2026-05-07 08:15 | 59.96960 | -129.86949 | 32904 ft | 545 kts | 119° |
| 2026-05-07 08:15 | 59.93650 | -129.73370 | 32921 ft | 546 kts | 119° |
| 2026-05-07 08:16 | 59.90347 | -129.59854 | 32925 ft | 543 kts | 119° |
| 2026-05-07 08:16 | 59.87051 | -129.46397 | 32941 ft | 543 kts | 119° |
| 2026-05-07 08:17 | 59.83738 | -129.32938 | 32949 ft | 543 kts | 120° |
| 2026-05-07 08:17 | 59.80428 | -129.19559 | 32946 ft | 542 kts | 120° |
| 2026-05-07 08:18 | 59.77082 | -129.06114 | 32960 ft | 544 kts | 120° |
| 2026-05-07 08:18 | 59.73746 | -128.92789 | 32981 ft | 546 kts | 120° |
| 2026-05-07 08:19 | 59.70370 | -128.79379 | 32965 ft | 545 kts | 120° |
| 2026-05-07 08:19 | 59.66993 | -128.66028 | 32959 ft | 544 kts | 120° |
| 2026-05-07 08:20 | 59.63608 | -128.52739 | 32964 ft | 543 kts | 119° |
| 2026-05-07 08:20 | 59.60212 | -128.39481 | 32958 ft | 544 kts | 120° |
| 2026-05-07 08:21 | 59.56797 | -128.26230 | 32943 ft | 542 kts | 120° |
| 2026-05-07 08:21 | 59.53403 | -128.13133 | 32940 ft | 542 kts | 120° |
| 2026-05-07 08:22 | 59.49950 | -127.99892 | 32947 ft | 543 kts | 120° |
| 2026-05-07 08:22 | 59.46520 | -127.86813 | 32951 ft | 543 kts | 120° |
| 2026-05-07 08:23 | 59.43038 | -127.73618 | 32956 ft | 543 kts | 120° |
| 2026-05-07 08:23 | 59.39581 | -127.60591 | 32945 ft | 544 kts | 120° |
| 2026-05-07 08:24 | 59.36090 | -127.47509 | 32937 ft | 544 kts | 120° |
| 2026-05-07 08:24 | 59.32578 | -127.34428 | 32942 ft | 545 kts | 121° |
| 2026-05-07 08:25 | 59.29065 | -127.21416 | 32927 ft | 543 kts | 121° |
| 2026-05-07 08:25 | 59.25534 | -127.08418 | 32912 ft | 544 kts | 121° |
| 2026-05-07 08:26 | 59.20181 | -126.88846 | 32906 ft | 546 kts | 121° |
| 2026-05-07 08:26 | 59.16614 | -126.75901 | 32916 ft | 544 kts | 120° |
| 2026-05-07 08:27 | 59.13042 | -126.63004 | 32913 ft | 544 kts | 120° |
| 2026-05-07 08:27 | 59.09457 | -126.50139 | 32921 ft | 545 kts | 120° |
| 2026-05-07 08:28 | 59.05823 | -126.37166 | 32933 ft | 545 kts | 120° |
| 2026-05-07 08:28 | 59.02205 | -126.24329 | 32928 ft | 546 kts | 121° |
| 2026-05-07 08:29 | 58.98562 | -126.11476 | 32932 ft | 545 kts | 120° |
| 2026-05-07 08:29 | 58.94915 | -125.98674 | 32933 ft | 544 kts | 120° |
| 2026-05-07 08:30 | 58.91277 | -125.85979 | 32935 ft | 543 kts | 120° |
| 2026-05-07 08:30 | 58.87613 | -125.73262 | 32922 ft | 543 kts | 121° |
| 2026-05-07 08:31 | 58.83933 | -125.60561 | 32918 ft | 542 kts | 121° |
| 2026-05-07 08:31 | 58.80256 | -125.47942 | 32918 ft | 541 kts | 121° |
| 2026-05-07 08:32 | 58.76572 | -125.35362 | 32924 ft | 542 kts | 121° |
| 2026-05-07 08:32 | 58.72868 | -125.22789 | 32912 ft | 542 kts | 121° |
| 2026-05-07 08:33 | 58.69141 | -125.10203 | 32916 ft | 541 kts | 121° |
| 2026-05-07 08:33 | 58.65445 | -124.97787 | 32908 ft | 540 kts | 121° |
| 2026-05-07 08:34 | 58.61710 | -124.85308 | 32925 ft | 540 kts | 121° |
| 2026-05-07 08:34 | 58.57982 | -124.72920 | 32913 ft | 540 kts | 121° |
| 2026-05-07 08:35 | 58.54221 | -124.60492 | 32913 ft | 540 kts | 121° |
| 2026-05-07 08:35 | 58.50463 | -124.48136 | 32919 ft | 541 kts | 122° |
| 2026-05-07 08:36 | 58.46682 | -124.35774 | 32922 ft | 540 kts | 121° |
| 2026-05-07 08:36 | 58.42907 | -124.23491 | 32918 ft | 539 kts | 122° |
| 2026-05-07 08:37 | 58.39101 | -124.11174 | 32908 ft | 539 kts | 122° |
| 2026-05-07 08:37 | 58.35303 | -123.98946 | 32912 ft | 538 kts | 122° |
| 2026-05-07 08:38 | 58.31486 | -123.86723 | 32903 ft | 539 kts | 122° |
| 2026-05-07 08:38 | 58.27655 | -123.74520 | 32904 ft | 538 kts | 122° |
| 2026-05-07 08:39 | 58.23847 | -123.62452 | 32897 ft | 536 kts | 122° |
| 2026-05-07 08:39 | 58.20007 | -123.50341 | 32902 ft | 537 kts | 122° |
| 2026-05-07 08:40 | 58.16166 | -123.38292 | 32899 ft | 536 kts | 122° |
| 2026-05-07 08:40 | 58.12339 | -123.26345 | 32892 ft | 536 kts | 123° |
| 2026-05-07 08:41 | 58.08476 | -123.14349 | 32889 ft | 537 kts | 123° |
| 2026-05-07 08:41 | 58.04569 | -123.02285 | 32884 ft | 537 kts | 123° |
| 2026-05-07 08:42 | 58.00686 | -122.90346 | 32880 ft | 536 kts | 123° |
| 2026-05-07 08:42 | 57.96813 | -122.78500 | 32860 ft | 537 kts | 123° |
| 2026-05-07 08:43 | 57.92868 | -122.66499 | 32870 ft | 538 kts | 123° |
| 2026-05-07 08:43 | 57.88960 | -122.54667 | 32894 ft | 538 kts | 123° |
| 2026-05-07 08:44 | 57.85007 | -122.42756 | 32894 ft | 540 kts | 123° |
| 2026-05-07 08:44 | 57.81031 | -122.30838 | 32872 ft | 539 kts | 124° |
| 2026-05-07 08:45 | 57.77061 | -122.18993 | 32867 ft | 540 kts | 123° |
| 2026-05-07 08:45 | 57.73055 | -122.07107 | 32878 ft | 540 kts | 124° |
| 2026-05-07 08:46 | 57.69065 | -121.95325 | 32878 ft | 540 kts | 123° |
| 2026-05-07 08:46 | 57.65048 | -121.83518 | 32867 ft | 542 kts | 123° |
| 2026-05-07 08:47 | 57.61010 | -121.71716 | 32877 ft | 542 kts | 123° |
| 2026-05-07 08:47 | 57.56971 | -121.59959 | 32875 ft | 542 kts | 123° |
| 2026-05-07 08:48 | 57.52910 | -121.48201 | 32868 ft | 543 kts | 124° |
| 2026-05-07 08:48 | 57.48817 | -121.36410 | 32877 ft | 544 kts | 123° |
| 2026-05-07 08:49 | 57.44724 | -121.24673 | 32865 ft | 543 kts | 124° |
| 2026-05-07 08:49 | 57.40594 | -121.12888 | 32872 ft | 546 kts | 124° |
| 2026-05-07 08:50 | 57.36456 | -121.01138 | 32866 ft | 546 kts | 124° |
| 2026-05-07 08:50 | 57.32332 | -120.89487 | 32861 ft | 545 kts | 124° |
| 2026-05-07 08:51 | 57.28180 | -120.77816 | 32861 ft | 546 kts | 124° |
| 2026-05-07 08:51 | 57.24000 | -120.66119 | 32868 ft | 547 kts | 124° |
| 2026-05-07 08:52 | 57.19808 | -120.54445 | 32868 ft | 546 kts | 124° |
| 2026-05-07 08:52 | 57.15623 | -120.42845 | 32870 ft | 545 kts | 124° |
| 2026-05-07 08:53 | 57.11450 | -120.31332 | 32857 ft | 544 kts | 125° |
| 2026-05-07 08:53 | 57.07234 | -120.19759 | 32862 ft | 546 kts | 125° |
| 2026-05-07 08:54 | 57.03029 | -120.08266 | 32860 ft | 545 kts | 125° |
| 2026-05-07 08:54 | 56.98860 | -119.96743 | 32861 ft | 546 kts | 122° |
| 2026-05-07 08:55 | 56.94953 | -119.84888 | 32875 ft | 546 kts | 121° |
| 2026-05-07 08:55 | 56.91139 | -119.72902 | 32874 ft | 545 kts | 121° |
| 2026-05-07 08:56 | 56.87260 | -119.61012 | 32883 ft | 545 kts | 121° |
| 2026-05-07 08:56 | 56.83390 | -119.49279 | 32893 ft | 544 kts | 121° |
| 2026-05-07 08:57 | 56.79484 | -119.37493 | 32875 ft | 543 kts | 121° |
| 2026-05-07 08:57 | 56.75565 | -119.25726 | 32876 ft | 544 kts | 122° |
| 2026-05-07 08:58 | 56.71673 | -119.14092 | 32874 ft | 542 kts | 122° |
| 2026-05-07 08:58 | 56.67738 | -119.02393 | 32876 ft | 542 kts | 122° |
| 2026-05-07 08:59 | 56.63810 | -118.90769 | 32887 ft | 543 kts | 122° |
| 2026-05-07 08:59 | 56.59860 | -118.79132 | 32874 ft | 541 kts | 122° |
| 2026-05-07 09:00 | 56.55918 | -118.67583 | 32872 ft | 542 kts | 122° |
| 2026-05-07 09:00 | 56.51949 | -118.56001 | 32865 ft | 540 kts | 122° |
| 2026-05-07 09:01 | 56.47992 | -118.44515 | 32866 ft | 542 kts | 122° |
| 2026-05-07 09:01 | 56.44024 | -118.33051 | 32857 ft | 542 kts | 123° |
| 2026-05-07 09:02 | 56.40031 | -118.21571 | 32844 ft | 539 kts | 123° |
| 2026-05-07 09:02 | 56.36050 | -118.10173 | 32841 ft | 538 kts | 123° |
| 2026-05-07 09:03 | 56.32073 | -117.98847 | 32852 ft | 539 kts | 123° |
| 2026-05-07 09:03 | 56.28047 | -117.87433 | 32852 ft | 538 kts | 123° |
| 2026-05-07 09:04 | 56.24071 | -117.76211 | 32852 ft | 536 kts | 123° |
| 2026-05-07 09:04 | 56.20049 | -117.64913 | 32858 ft | 536 kts | 123° |
| 2026-05-07 09:05 | 56.16058 | -117.53754 | 32847 ft | 535 kts | 123° |
| 2026-05-07 09:05 | 56.12052 | -117.42607 | 32843 ft | 534 kts | 123° |
| 2026-05-07 09:06 | 56.08039 | -117.31486 | 32846 ft | 534 kts | 124° |
| 2026-05-07 09:06 | 56.03986 | -117.20310 | 32854 ft | 533 kts | 124° |
| 2026-05-07 09:07 | 55.99969 | -117.09283 | 32838 ft | 533 kts | 123° |
| 2026-05-07 09:07 | 55.95927 | -116.98241 | 32844 ft | 533 kts | 123° |
| 2026-05-07 09:08 | 55.91885 | -116.87243 | 32846 ft | 532 kts | 124° |
| 2026-05-07 09:08 | 55.87835 | -116.76276 | 32833 ft | 531 kts | 123° |
| 2026-05-07 09:09 | 55.83778 | -116.65337 | 32835 ft | 531 kts | 123° |
| 2026-05-07 09:09 | 55.79707 | -116.54407 | 32833 ft | 531 kts | 124° |
| 2026-05-07 09:10 | 55.75632 | -116.43520 | 32840 ft | 531 kts | 123° |
| 2026-05-07 09:10 | 55.71566 | -116.32704 | 32836 ft | 531 kts | 124° |
| 2026-05-07 09:11 | 55.67477 | -116.21871 | 32837 ft | 528 kts | 124° |
| 2026-05-07 09:11 | 55.63393 | -116.11104 | 32844 ft | 528 kts | 124° |
| 2026-05-07 09:12 | 55.59304 | -116.00366 | 32853 ft | 529 kts | 124° |
| 2026-05-07 09:12 | 55.55225 | -115.89709 | 32843 ft | 527 kts | 124° |
| 2026-05-07 09:13 | 55.51101 | -115.78973 | 32846 ft | 527 kts | 124° |
| 2026-05-07 09:13 | 55.46998 | -115.68339 | 32845 ft | 527 kts | 124° |
| 2026-05-07 09:14 | 55.42881 | -115.57721 | 32837 ft | 527 kts | 124° |
| 2026-05-07 09:14 | 55.38748 | -115.47105 | 32832 ft | 527 kts | 124° |
| 2026-05-07 09:15 | 55.34610 | -115.36517 | 32831 ft | 528 kts | 124° |
| 2026-05-07 09:15 | 55.30466 | -115.25965 | 32824 ft | 528 kts | 126° |
| 2026-05-07 09:16 | 55.26297 | -115.15393 | 32816 ft | 528 kts | 126° |
| 2026-05-07 09:16 | 55.22152 | -115.04925 | 32801 ft | 526 kts | 125° |
| 2026-05-07 09:17 | 55.17975 | -114.94420 | 32795 ft | 527 kts | 126° |
| 2026-05-07 09:17 | 55.13815 | -114.84005 | 32794 ft | 526 kts | 125° |
| 2026-05-07 09:18 | 55.09609 | -114.73519 | 32793 ft | 526 kts | 126° |
| 2026-05-07 09:18 | 55.05426 | -114.63134 | 32789 ft | 525 kts | 126° |
| 2026-05-07 09:19 | 55.01241 | -114.52783 | 32791 ft | 525 kts | 126° |
| 2026-05-07 09:19 | 54.97059 | -114.42487 | 32789 ft | 524 kts | 126° |
| 2026-05-07 09:20 | 54.92842 | -114.32149 | 32782 ft | 523 kts | 127° |
| 2026-05-07 09:20 | 54.88636 | -114.21880 | 32775 ft | 523 kts | 126° |
| 2026-05-07 09:21 | 54.84439 | -114.11674 | 32781 ft | 523 kts | 126° |
| 2026-05-07 09:21 | 54.80230 | -114.01482 | 32781 ft | 522 kts | 126° |
| 2026-05-07 09:22 | 54.76013 | -113.91309 | 32777 ft | 521 kts | 126° |
| 2026-05-07 09:22 | 54.71773 | -113.81125 | 32779 ft | 521 kts | 126° |
| 2026-05-07 09:23 | 54.67545 | -113.71017 | 32780 ft | 522 kts | 126° |
| 2026-05-07 09:23 | 54.63314 | -113.60936 | 32783 ft | 522 kts | 126° |
| 2026-05-07 09:24 | 54.59036 | -113.50789 | 32777 ft | 522 kts | 126° |
| 2026-05-07 09:24 | 54.54767 | -113.40697 | 32775 ft | 522 kts | 126° |
| 2026-05-07 09:25 | 54.50507 | -113.30668 | 32781 ft | 522 kts | 127° |
| 2026-05-07 09:25 | 54.46251 | -113.20696 | 32780 ft | 521 kts | 127° |
| 2026-05-07 09:26 | 54.41965 | -113.10689 | 32781 ft | 521 kts | 127° |
| 2026-05-07 09:26 | 54.37674 | -113.00708 | 32783 ft | 521 kts | 127° |
| 2026-05-07 09:27 | 54.33374 | -112.90753 | 32779 ft | 521 kts | 127° |
| 2026-05-07 09:28 | 54.26908 | -112.75851 | 32783 ft | 521 kts | 127° |
| 2026-05-07 09:28 | 54.22585 | -112.65939 | 32785 ft | 523 kts | 127° |
| 2026-05-07 09:29 | 54.18251 | -112.56039 | 32777 ft | 522 kts | 127° |
| 2026-05-07 09:29 | 54.13927 | -112.46204 | 32780 ft | 521 kts | 127° |
| 2026-05-07 09:30 | 54.09589 | -112.36378 | 32772 ft | 521 kts | 127° |
| 2026-05-07 09:30 | 54.05219 | -112.26513 | 32766 ft | 521 kts | 127° |
| 2026-05-07 09:31 | 54.00859 | -112.16711 | 32766 ft | 521 kts | 127° |
| 2026-05-07 09:31 | 53.96497 | -112.06943 | 32764 ft | 521 kts | 127° |
| 2026-05-07 09:32 | 53.92125 | -111.97186 | 32756 ft | 521 kts | 127° |
| 2026-05-07 09:32 | 53.87746 | -111.87457 | 32757 ft | 521 kts | 127° |
| 2026-05-07 09:33 | 53.83356 | -111.77741 | 32759 ft | 522 kts | 127° |
| 2026-05-07 09:33 | 53.78963 | -111.68055 | 32771 ft | 522 kts | 127° |
| 2026-05-07 09:34 | 53.74542 | -111.58348 | 32775 ft | 522 kts | 127° |
| 2026-05-07 09:34 | 53.70127 | -111.48687 | 32773 ft | 523 kts | 127° |
| 2026-05-07 09:35 | 53.65673 | -111.38983 | 32777 ft | 522 kts | 127° |
| 2026-05-07 09:35 | 53.61252 | -111.29380 | 32771 ft | 521 kts | 128° |
| 2026-05-07 09:36 | 53.56808 | -111.19771 | 32781 ft | 521 kts | 128° |
| 2026-05-07 09:36 | 53.52362 | -111.10192 | 32780 ft | 522 kts | 128° |
| 2026-05-07 09:37 | 53.47878 | -111.00568 | 32776 ft | 523 kts | 128° |
| 2026-05-07 09:37 | 53.43410 | -110.91018 | 32777 ft | 522 kts | 128° |
| 2026-05-07 09:38 | 53.38936 | -110.81483 | 32782 ft | 523 kts | 128° |
| 2026-05-07 09:38 | 53.34454 | -110.71968 | 32781 ft | 523 kts | 128° |
| 2026-05-07 09:39 | 53.29930 | -110.62411 | 32820 ft | 527 kts | 128° |
| 2026-05-07 09:39 | 53.27659 | -110.57629 | 33180 ft | 526 kts | 128° |
| 2026-05-07 09:39 | 53.25406 | -110.52889 | 33571 ft | 525 kts | 128° |
| 2026-05-07 09:39 | 53.23122 | -110.48091 | 33948 ft | 524 kts | 128° |
| 2026-05-07 09:40 | 53.20879 | -110.43389 | 34264 ft | 524 kts | 128° |
| 2026-05-07 09:40 | 53.18632 | -110.38687 | 34619 ft | 522 kts | 128° |
| 2026-05-07 09:40 | 53.16370 | -110.33960 | 34814 ft | 523 kts | 129° |
| 2026-05-07 09:40 | 53.14091 | -110.29212 | 35033 ft | 523 kts | 129° |
| 2026-05-07 09:41 | 53.11837 | -110.24519 | 35251 ft | 522 kts | 129° |
| 2026-05-07 09:41 | 53.09563 | -110.19801 | 35456 ft | 522 kts | 129° |
| 2026-05-07 09:41 | 53.07296 | -110.15089 | 35650 ft | 522 kts | 129° |
| 2026-05-07 09:41 | 53.05047 | -110.10436 | 35831 ft | 522 kts | 129° |
| 2026-05-07 09:42 | 53.02781 | -110.05753 | 35997 ft | 522 kts | 129° |
| 2026-05-07 09:42 | 53.00526 | -110.01057 | 36160 ft | 522 kts | 127° |
| 2026-05-07 09:42 | 52.98429 | -109.96087 | 36316 ft | 522 kts | 122° |
| 2026-05-07 09:42 | 52.96504 | -109.91090 | 36473 ft | 522 kts | 121° |
| 2026-05-07 09:43 | 52.94590 | -109.85915 | 36686 ft | 521 kts | 120° |
| 2026-05-07 09:43 | 52.92775 | -109.80788 | 36789 ft | 524 kts | 118° |
| 2026-05-07 09:43 | 52.90976 | -109.75510 | 36767 ft | 521 kts | 117° |
| 2026-05-07 09:44 | 52.87325 | -109.65213 | 36770 ft | 519 kts | 120° |
| 2026-05-07 09:44 | 52.83577 | -109.55106 | 36781 ft | 521 kts | 120° |
| 2026-05-07 09:45 | 52.79774 | -109.44892 | 36779 ft | 521 kts | 120° |
| 2026-05-07 09:45 | 52.76012 | -109.34808 | 36788 ft | 521 kts | 120° |
| 2026-05-07 09:46 | 52.72194 | -109.24603 | 36790 ft | 522 kts | 121° |
| 2026-05-07 09:46 | 52.68397 | -109.14494 | 36785 ft | 523 kts | 121° |
| 2026-05-07 09:47 | 52.64575 | -109.04347 | 36787 ft | 522 kts | 120° |
| 2026-05-07 09:47 | 52.60758 | -108.94255 | 36788 ft | 522 kts | 120° |
| 2026-05-07 09:48 | 52.56924 | -108.84158 | 36797 ft | 522 kts | 120° |
| 2026-05-07 09:48 | 52.53078 | -108.74066 | 36797 ft | 522 kts | 120° |
| 2026-05-07 09:49 | 52.49233 | -108.64014 | 36797 ft | 523 kts | 120° |
| 2026-05-07 09:49 | 52.45351 | -108.53904 | 36798 ft | 524 kts | 120° |
| 2026-05-07 09:50 | 52.41491 | -108.43893 | 36797 ft | 524 kts | 120° |
| 2026-05-07 09:50 | 52.37600 | -108.33840 | 36801 ft | 524 kts | 121° |
| 2026-05-07 09:51 | 52.33690 | -108.23781 | 36803 ft | 525 kts | 121° |
| 2026-05-07 09:51 | 52.29770 | -108.13735 | 36816 ft | 526 kts | 121° |
| 2026-05-07 09:52 | 52.25855 | -108.03744 | 36816 ft | 526 kts | 121° |
| 2026-05-07 09:52 | 52.21930 | -107.93758 | 36813 ft | 525 kts | 121° |
| 2026-05-07 09:53 | 52.17983 | -107.83760 | 36817 ft | 525 kts | 121° |
| 2026-05-07 09:53 | 52.14028 | -107.73783 | 36816 ft | 526 kts | 120° |
| 2026-05-07 09:54 | 52.10078 | -107.63853 | 36810 ft | 527 kts | 120° |
| 2026-05-07 09:54 | 52.06101 | -107.53893 | 36818 ft | 528 kts | 121° |
| 2026-05-07 09:55 | 52.02112 | -107.43946 | 36821 ft | 529 kts | 121° |
| 2026-05-07 09:55 | 51.98090 | -107.33956 | 36828 ft | 530 kts | 121° |
| 2026-05-07 09:56 | 51.94075 | -107.24019 | 36825 ft | 530 kts | 121° |
| 2026-05-07 09:56 | 51.90036 | -107.14064 | 36823 ft | 530 kts | 121° |
| 2026-05-07 09:57 | 51.85986 | -107.04120 | 36825 ft | 530 kts | 121° |
| 2026-05-07 09:57 | 51.81957 | -106.94267 | 36822 ft | 530 kts | 121° |
| 2026-05-07 09:58 | 51.77887 | -106.84346 | 36824 ft | 530 kts | 121° |
| 2026-05-07 09:58 | 51.73822 | -106.74478 | 36820 ft | 531 kts | 121° |
| 2026-05-07 09:59 | 51.69736 | -106.64600 | 36817 ft | 531 kts | 121° |
| 2026-05-07 09:59 | 51.65636 | -106.54724 | 36821 ft | 532 kts | 121° |
| 2026-05-07 10:00 | 51.61532 | -106.44872 | 36822 ft | 532 kts | 121° |
| 2026-05-07 10:00 | 51.57411 | -106.35023 | 36828 ft | 533 kts | 121° |
| 2026-05-07 10:01 | 51.53291 | -106.25211 | 36818 ft | 533 kts | 122° |
| 2026-05-07 10:01 | 51.49147 | -106.15380 | 36817 ft | 534 kts | 121° |
| 2026-05-07 10:02 | 51.44990 | -106.05560 | 36817 ft | 534 kts | 121° |
| 2026-05-07 10:02 | 51.40825 | -105.95746 | 36823 ft | 535 kts | 121° |
| 2026-05-07 10:03 | 51.36647 | -105.85950 | 36815 ft | 535 kts | 121° |
| 2026-05-07 10:03 | 51.32473 | -105.76197 | 36819 ft | 534 kts | 121° |
| 2026-05-07 10:04 | 51.28268 | -105.66407 | 36829 ft | 535 kts | 121° |
| 2026-05-07 10:04 | 51.24082 | -105.56699 | 36826 ft | 535 kts | 121° |
| 2026-05-07 10:05 | 51.19874 | -105.46979 | 36838 ft | 534 kts | 121° |
| 2026-05-07 10:05 | 51.15632 | -105.37212 | 36853 ft | 535 kts | 121° |
| 2026-05-07 10:06 | 51.11416 | -105.27544 | 36848 ft | 535 kts | 122° |
| 2026-05-07 10:06 | 51.07174 | -105.17852 | 36843 ft | 536 kts | 122° |
| 2026-05-07 10:07 | 51.02928 | -105.08187 | 36835 ft | 536 kts | 122° |
| 2026-05-07 10:07 | 50.98681 | -104.98556 | 36841 ft | 536 kts | 122° |
| 2026-05-07 10:08 | 50.94398 | -104.88880 | 36841 ft | 536 kts | 122° |
| 2026-05-07 10:08 | 50.90129 | -104.79267 | 36845 ft | 539 kts | 122° |
| 2026-05-07 10:09 | 50.85834 | -104.69636 | 36832 ft | 538 kts | 121° |
| 2026-05-07 10:09 | 50.81501 | -104.59951 | 36833 ft | 538 kts | 122° |
| 2026-05-07 10:10 | 50.77191 | -104.50356 | 36831 ft | 538 kts | 121° |
| 2026-05-07 10:10 | 50.72871 | -104.40774 | 36829 ft | 538 kts | 121° |
| 2026-05-07 10:11 | 50.68544 | -104.31210 | 36833 ft | 539 kts | 122° |
| 2026-05-07 10:11 | 50.64208 | -104.21663 | 36829 ft | 539 kts | 122° |
| 2026-05-07 10:12 | 50.59839 | -104.12076 | 36823 ft | 539 kts | 122° |
| 2026-05-07 10:12 | 50.55485 | -104.02558 | 36829 ft | 540 kts | 122° |
| 2026-05-07 10:13 | 50.51090 | -103.92983 | 36828 ft | 540 kts | 122° |
| 2026-05-07 10:13 | 50.46722 | -103.83507 | 36830 ft | 540 kts | 122° |
| 2026-05-07 10:14 | 50.42304 | -103.73952 | 36834 ft | 541 kts | 122° |
| 2026-05-07 10:14 | 50.37903 | -103.64470 | 36836 ft | 541 kts | 122° |
| 2026-05-07 10:15 | 50.33492 | -103.55000 | 36837 ft | 540 kts | 122° |
| 2026-05-07 10:15 | 50.29075 | -103.45551 | 36839 ft | 541 kts | 122° |
| 2026-05-07 10:16 | 50.24632 | -103.36081 | 36832 ft | 541 kts | 122° |
| 2026-05-07 10:16 | 50.20198 | -103.26663 | 36829 ft | 543 kts | 123° |
| 2026-05-07 10:17 | 50.15733 | -103.17215 | 36828 ft | 542 kts | 123° |
| 2026-05-07 10:17 | 50.11275 | -103.07815 | 36826 ft | 542 kts | 123° |
| 2026-05-07 10:18 | 50.06783 | -102.98376 | 36836 ft | 543 kts | 123° |
| 2026-05-07 10:18 | 50.02313 | -102.89017 | 36826 ft | 544 kts | 123° |
| 2026-05-07 10:19 | 49.97796 | -102.79594 | 36827 ft | 544 kts | 123° |
| 2026-05-07 10:19 | 49.93272 | -102.70190 | 36837 ft | 544 kts | 123° |
| 2026-05-07 10:20 | 49.88760 | -102.60841 | 36830 ft | 544 kts | 123° |
| 2026-05-07 10:20 | 49.84249 | -102.51532 | 36820 ft | 543 kts | 123° |
| 2026-05-07 10:21 | 49.79713 | -102.42202 | 36827 ft | 543 kts | 123° |
| 2026-05-07 10:21 | 49.75171 | -102.32890 | 36826 ft | 544 kts | 123° |
| 2026-05-07 10:22 | 49.70615 | -102.23584 | 36826 ft | 544 kts | 123° |
| 2026-05-07 10:22 | 49.66076 | -102.14346 | 36835 ft | 543 kts | 124° |
| 2026-05-07 10:23 | 49.61532 | -102.05132 | 36838 ft | 543 kts | 123° |
| 2026-05-07 10:23 | 49.56964 | -101.95894 | 36844 ft | 545 kts | 123° |
| 2026-05-07 10:24 | 49.52354 | -101.86610 | 36846 ft | 544 kts | 124° |
| 2026-05-07 10:24 | 49.47772 | -101.77410 | 36833 ft | 544 kts | 124° |
| 2026-05-07 10:25 | 49.43184 | -101.68233 | 36981 ft | 544 kts | 123° |
| 2026-05-07 10:25 | 49.38596 | -101.59090 | 36854 ft | 544 kts | 123° |
| 2026-05-07 10:26 | 49.34024 | -101.50006 | 36853 ft | 542 kts | 123° |
| 2026-05-07 10:26 | 49.29395 | -101.40834 | 36858 ft | 544 kts | 124° |
| 2026-05-07 10:27 | 49.24802 | -101.31774 | 36852 ft | 543 kts | 124° |
| 2026-05-07 10:27 | 49.20144 | -101.22614 | 36852 ft | 544 kts | 124° |
| 2026-05-07 10:28 | 49.15526 | -101.13559 | 36854 ft | 544 kts | 124° |
| 2026-05-07 10:28 | 49.10871 | -101.04462 | 36860 ft | 545 kts | 124° |
| 2026-05-07 10:29 | 49.06231 | -100.95425 | 36862 ft | 545 kts | 124° |
| 2026-05-07 10:29 | 49.01572 | -100.86376 | 36864 ft | 544 kts | 124° |
| 2026-05-07 10:30 | 48.94646 | -100.72768 | 36867 ft | 544 kts | 124° |
| 2026-05-07 10:30 | 48.90046 | -100.63664 | 36865 ft | 543 kts | 124° |
| 2026-05-07 10:31 | 48.85458 | -100.54616 | 36840 ft | 543 kts | 124° |
| 2026-05-07 10:31 | 48.80830 | -100.45517 | 36851 ft | 544 kts | 124° |
| 2026-05-07 10:32 | 48.76231 | -100.36503 | 36851 ft | 544 kts | 123° |
| 2026-05-07 10:32 | 48.71612 | -100.27481 | 36853 ft | 544 kts | 125° |
| 2026-05-07 10:33 | 48.66959 | -100.18420 | 36855 ft | 544 kts | 124° |
| 2026-05-07 10:33 | 48.62330 | -100.09435 | 36859 ft | 544 kts | 125° |
| 2026-05-07 10:34 | 48.57666 | -100.00413 | 36847 ft | 544 kts | 124° |
| 2026-05-07 10:34 | 48.53025 | -99.91470 | 36846 ft | 543 kts | 125° |
| 2026-05-07 10:35 | 48.48378 | -99.82539 | 36855 ft | 544 kts | 125° |
| 2026-05-07 10:35 | 48.43686 | -99.73554 | 36847 ft | 544 kts | 125° |
| 2026-05-07 10:36 | 48.39024 | -99.64656 | 36845 ft | 545 kts | 125° |
| 2026-05-07 10:36 | 48.34351 | -99.55764 | 36860 ft | 544 kts | 125° |
| 2026-05-07 10:37 | 48.29662 | -99.46871 | 36843 ft | 544 kts | 125° |
| 2026-05-07 10:37 | 48.24952 | -99.37972 | 36841 ft | 543 kts | 124° |
| 2026-05-07 10:38 | 48.20251 | -99.29115 | 36843 ft | 543 kts | 126° |
| 2026-05-07 10:38 | 48.15548 | -99.20280 | 36825 ft | 543 kts | 126° |
| 2026-05-07 10:39 | 48.10849 | -99.11484 | 36847 ft | 544 kts | 126° |
| 2026-05-07 10:39 | 48.06138 | -99.02696 | 36850 ft | 543 kts | 126° |
| 2026-05-07 10:40 | 48.01421 | -98.93922 | 36844 ft | 543 kts | 126° |
| 2026-05-07 10:40 | 47.96681 | -98.85133 | 36853 ft | 546 kts | 126° |
| 2026-05-07 10:41 | 47.91956 | -98.76407 | 36852 ft | 542 kts | 126° |
| 2026-05-07 10:41 | 47.87218 | -98.67681 | 36832 ft | 542 kts | 126° |
| 2026-05-07 10:42 | 47.82496 | -98.59007 | 36834 ft | 543 kts | 126° |
| 2026-05-07 10:42 | 47.77749 | -98.50317 | 36830 ft | 543 kts | 126° |
| 2026-05-07 10:43 | 47.72990 | -98.41630 | 36841 ft | 541 kts | 126° |
| 2026-05-07 10:43 | 47.68241 | -98.32990 | 36838 ft | 543 kts | 127° |
| 2026-05-07 10:44 | 47.63482 | -98.24355 | 36839 ft | 544 kts | 127° |
| 2026-05-07 10:44 | 47.58688 | -98.15685 | 36843 ft | 542 kts | 127° |
| 2026-05-07 10:45 | 47.53924 | -98.07089 | 36839 ft | 542 kts | 127° |
| 2026-05-07 10:45 | 47.49185 | -97.98459 | 36836 ft | 542 kts | 124° |
| 2026-05-07 10:46 | 47.44788 | -97.89477 | 36843 ft | 543 kts | 122° |
| 2026-05-07 10:46 | 47.40646 | -97.80309 | 36844 ft | 539 kts | 120° |
| 2026-05-07 10:47 | 47.36517 | -97.71022 | 36846 ft | 539 kts | 122° |
| 2026-05-07 10:47 | 47.32244 | -97.61974 | 36851 ft | 540 kts | 122° |
| 2026-05-07 10:48 | 47.27950 | -97.52945 | 36860 ft | 540 kts | 122° |
| 2026-05-07 10:48 | 47.23651 | -97.43904 | 36864 ft | 541 kts | 122° |
| 2026-05-07 10:49 | 47.19370 | -97.34919 | 36856 ft | 540 kts | 123° |
| 2026-05-07 10:49 | 47.15079 | -97.25932 | 36861 ft | 540 kts | 123° |
| 2026-05-07 10:50 | 47.10755 | -97.16901 | 36868 ft | 540 kts | 123° |
| 2026-05-07 10:50 | 47.06453 | -97.07941 | 36872 ft | 540 kts | 123° |
| 2026-05-07 10:51 | 47.02138 | -96.98981 | 36875 ft | 540 kts | 123° |
| 2026-05-07 10:51 | 46.97811 | -96.90024 | 36884 ft | 540 kts | 123° |
| 2026-05-07 10:52 | 46.93462 | -96.81053 | 36882 ft | 539 kts | 123° |
| 2026-05-07 10:52 | 46.89150 | -96.72184 | 36882 ft | 538 kts | 123° |
| 2026-05-07 10:53 | 46.84815 | -96.63294 | 36876 ft | 538 kts | 123° |
| 2026-05-07 10:53 | 46.80473 | -96.54418 | 36880 ft | 539 kts | 123° |
| 2026-05-07 10:54 | 46.76123 | -96.45556 | 36872 ft | 538 kts | 123° |
| 2026-05-07 10:54 | 46.71780 | -96.36733 | 36872 ft | 539 kts | 123° |
| 2026-05-07 10:55 | 46.67407 | -96.27879 | 36857 ft | 538 kts | 124° |
| 2026-05-07 10:55 | 46.63043 | -96.19074 | 36861 ft | 538 kts | 124° |
| 2026-05-07 10:56 | 46.58667 | -96.10268 | 36855 ft | 539 kts | 124° |
| 2026-05-07 10:56 | 46.54285 | -96.01482 | 36853 ft | 537 kts | 124° |
| 2026-05-07 10:57 | 46.49915 | -95.92744 | 36860 ft | 538 kts | 125° |
| 2026-05-07 10:57 | 46.45518 | -95.83981 | 36864 ft | 538 kts | 125° |
| 2026-05-07 10:58 | 46.41127 | -95.75255 | 36865 ft | 538 kts | 125° |
| 2026-05-07 10:58 | 46.36721 | -95.66531 | 36872 ft | 537 kts | 125° |
| 2026-05-07 10:59 | 46.32335 | -95.57870 | 36874 ft | 537 kts | 125° |
| 2026-05-07 10:59 | 46.27919 | -95.49177 | 36877 ft | 538 kts | 125° |
| 2026-05-07 11:00 | 46.23490 | -95.40484 | 36881 ft | 537 kts | 125° |
| 2026-05-07 11:00 | 46.19080 | -95.31857 | 36875 ft | 537 kts | 126° |
| 2026-05-07 11:01 | 46.14648 | -95.23214 | 36877 ft | 538 kts | 126° |
| 2026-05-07 11:01 | 46.10210 | -95.14587 | 36886 ft | 538 kts | 126° |
| 2026-05-07 11:02 | 46.05750 | -95.05941 | 36900 ft | 538 kts | 126° |
| 2026-05-07 11:02 | 46.01284 | -94.97309 | 36901 ft | 539 kts | 126° |
| 2026-05-07 11:03 | 45.96803 | -94.88679 | 36899 ft | 539 kts | 126° |
| 2026-05-07 11:03 | 45.92333 | -94.80093 | 36898 ft | 537 kts | 126° |
| 2026-05-07 11:04 | 45.87892 | -94.71590 | 36893 ft | 537 kts | 126° |
| 2026-05-07 11:04 | 45.83404 | -94.63018 | 36899 ft | 537 kts | 126° |
| 2026-05-07 11:05 | 45.78921 | -94.54488 | 36899 ft | 538 kts | 126° |
| 2026-05-07 11:05 | 45.74452 | -94.46004 | 36903 ft | 539 kts | 126° |
| 2026-05-07 11:06 | 45.69947 | -94.37483 | 36906 ft | 538 kts | 126° |
| 2026-05-07 11:06 | 45.65452 | -94.28999 | 36903 ft | 537 kts | 127° |
| 2026-05-07 11:07 | 45.60925 | -94.20483 | 36908 ft | 538 kts | 127° |
| 2026-05-07 11:07 | 45.56398 | -94.11990 | 36907 ft | 538 kts | 127° |
| 2026-05-07 11:08 | 45.51886 | -94.03543 | 36906 ft | 537 kts | 127° |
| 2026-05-07 11:08 | 45.47305 | -93.95218 | 36913 ft | 537 kts | 130° |
| 2026-05-07 11:09 | 45.42529 | -93.87084 | 36917 ft | 538 kts | 130° |
| 2026-05-07 11:09 | 45.37729 | -93.78957 | 36920 ft | 536 kts | 130° |
| 2026-05-07 11:10 | 45.32947 | -93.70850 | 36923 ft | 537 kts | 130° |
| 2026-05-07 11:10 | 45.28160 | -93.62743 | 36925 ft | 536 kts | 130° |
| 2026-05-07 11:11 | 45.23359 | -93.54628 | 36927 ft | 537 kts | 130° |
| 2026-05-07 11:11 | 45.18562 | -93.46536 | 36927 ft | 536 kts | 130° |
| 2026-05-07 11:12 | 45.13797 | -93.38519 | 36930 ft | 536 kts | 130° |
| 2026-05-07 11:12 | 45.08988 | -93.30452 | 36925 ft | 537 kts | 131° |
| 2026-05-07 11:13 | 45.04193 | -93.22425 | 36926 ft | 536 kts | 131° |
| 2026-05-07 11:13 | 44.99381 | -93.14387 | 36931 ft | 537 kts | 131° |
| 2026-05-07 11:14 | 44.94577 | -93.06396 | 36932 ft | 537 kts | 131° |
| 2026-05-07 11:14 | 44.89751 | -92.98385 | 36935 ft | 537 kts | 131° |
| 2026-05-07 11:15 | 44.84932 | -92.90406 | 36934 ft | 536 kts | 131° |
| 2026-05-07 11:15 | 44.80083 | -92.82404 | 36927 ft | 536 kts | 131° |
| 2026-05-07 11:16 | 44.75240 | -92.74432 | 36926 ft | 537 kts | 132° |
| 2026-05-07 11:16 | 44.70389 | -92.66468 | 36921 ft | 538 kts | 131° |
| 2026-05-07 11:17 | 44.65533 | -92.58520 | 36918 ft | 538 kts | 132° |
| 2026-05-07 11:17 | 44.60676 | -92.50593 | 36913 ft | 538 kts | 132° |
| 2026-05-07 11:18 | 44.55786 | -92.42633 | 36909 ft | 538 kts | 132° |
| 2026-05-07 11:18 | 44.50908 | -92.34718 | 36913 ft | 539 kts | 133° |
| 2026-05-07 11:19 | 44.46037 | -92.26832 | 36908 ft | 538 kts | 133° |
| 2026-05-07 11:19 | 44.41144 | -92.18935 | 36915 ft | 538 kts | 133° |
| 2026-05-07 11:20 | 44.36238 | -92.11036 | 36919 ft | 538 kts | 133° |
| 2026-05-07 11:20 | 44.31319 | -92.03143 | 36924 ft | 540 kts | 133° |
| 2026-05-07 11:21 | 44.26391 | -91.95256 | 36928 ft | 540 kts | 133° |
| 2026-05-07 11:21 | 44.21485 | -91.87426 | 36931 ft | 540 kts | 133° |
| 2026-05-07 11:22 | 44.16555 | -91.79575 | 36928 ft | 539 kts | 133° |
| 2026-05-07 11:22 | 44.11619 | -91.71738 | 36928 ft | 539 kts | 133° |
| 2026-05-07 11:23 | 44.06672 | -91.63911 | 36931 ft | 540 kts | 133° |
| 2026-05-07 11:23 | 44.01730 | -91.56109 | 36933 ft | 540 kts | 134° |
| 2026-05-07 11:24 | 43.96779 | -91.48312 | 36936 ft | 539 kts | 134° |
| 2026-05-07 11:24 | 43.91839 | -91.40554 | 36942 ft | 539 kts | 134° |
| 2026-05-07 11:25 | 43.86869 | -91.32772 | 36941 ft | 540 kts | 135° |
| 2026-05-07 11:25 | 43.81891 | -91.25000 | 36942 ft | 539 kts | 134° |
| 2026-05-07 11:26 | 43.76934 | -91.17279 | 36946 ft | 541 kts | 135° |
| 2026-05-07 11:26 | 43.71673 | -91.09858 | 36944 ft | 537 kts | 145° |
| 2026-05-07 11:27 | 43.65576 | -91.04115 | 36945 ft | 532 kts | 152° |
| 2026-05-07 11:27 | 43.59344 | -90.98610 | 36940 ft | 532 kts | 151° |
| 2026-05-07 11:28 | 43.53213 | -90.92925 | 36938 ft | 531 kts | 149° |
| 2026-05-07 11:28 | 43.47172 | -90.87025 | 36949 ft | 533 kts | 148° |
| 2026-05-07 11:29 | 43.41255 | -90.80924 | 36936 ft | 536 kts | 146° |
| 2026-05-07 11:29 | 43.35389 | -90.74503 | 36936 ft | 537 kts | 144° |
| 2026-05-07 11:30 | 43.29723 | -90.67876 | 36936 ft | 537 kts | 142° |
| 2026-05-07 11:30 | 43.24211 | -90.60941 | 36944 ft | 538 kts | 140° |
| 2026-05-07 11:31 | 43.18926 | -90.53713 | 36949 ft | 540 kts | 137° |
| 2026-05-07 11:31 | 43.13912 | -90.46071 | 36951 ft | 543 kts | 132° |
| 2026-05-07 11:32 | 43.07315 | -90.33446 | 36948 ft | 548 kts | 124° |
| 2026-05-07 11:33 | 43.03620 | -90.24379 | 36942 ft | 549 kts | 119° |
| 2026-05-07 11:33 | 43.00515 | -90.14854 | 36942 ft | 553 kts | 113° |
| 2026-05-07 11:34 | 42.98037 | -90.04971 | 36938 ft | 552 kts | 108° |
| 2026-05-07 11:34 | 42.96204 | -89.94765 | 36948 ft | 553 kts | 102° |
| 2026-05-07 11:35 | 42.95051 | -89.84466 | 36936 ft | 554 kts | 96° |
| 2026-05-07 11:35 | 42.94567 | -89.73999 | 36941 ft | 555 kts | 91° |
| 2026-05-07 11:36 | 42.94764 | -89.63474 | 36949 ft | 556 kts | 85° |
| 2026-05-07 11:36 | 42.95638 | -89.53054 | 36957 ft | 556 kts | 79° |
| 2026-05-07 11:37 | 42.97193 | -89.42709 | 36957 ft | 555 kts | 73° |
| 2026-05-07 11:37 | 42.99406 | -89.32626 | 36949 ft | 554 kts | 69° |
| 2026-05-07 11:38 | 43.02229 | -89.22966 | 36943 ft | 552 kts | 63° |
| 2026-05-07 11:38 | 43.05691 | -89.13621 | 36945 ft | 550 kts | 58° |
| 2026-05-07 11:39 | 43.09712 | -89.04811 | 36942 ft | 547 kts | 52° |
| 2026-05-07 11:39 | 43.14315 | -88.96491 | 36949 ft | 546 kts | 46° |
| 2026-05-07 11:40 | 43.19398 | -88.88842 | 36941 ft | 541 kts | 40° |
| 2026-05-07 11:40 | 43.24902 | -88.81926 | 36944 ft | 537 kts | 35° |
| 2026-05-07 11:41 | 43.30804 | -88.75764 | 36942 ft | 532 kts | 29° |
| 2026-05-07 11:41 | 43.37006 | -88.70441 | 36940 ft | 526 kts | 23° |
| 2026-05-07 11:42 | 43.43543 | -88.65932 | 36936 ft | 521 kts | 18° |
| 2026-05-07 11:42 | 43.50099 | -88.61764 | 36901 ft | 530 kts | 32° |
| 2026-05-07 11:42 | 43.52707 | -88.58192 | 37012 ft | 541 kts | 51° |
| 2026-05-07 11:43 | 43.54503 | -88.53574 | 36967 ft | 552 kts | 70° |
| 2026-05-07 11:43 | 43.55224 | -88.48431 | 36998 ft | 554 kts | 89° |
| 2026-05-07 11:43 | 43.54823 | -88.43151 | 36986 ft | 552 kts | 108° |
| 2026-05-07 11:43 | 43.53360 | -88.38409 | 36991 ft | 544 kts | 126° |
| 2026-05-07 11:44 | 43.50958 | -88.34486 | 36993 ft | 532 kts | 146° |
| 2026-05-07 11:44 | 43.47873 | -88.31802 | 36978 ft | 514 kts | 165° |
| 2026-05-07 11:44 | 43.44486 | -88.30557 | 37007 ft | 499 kts | 178° |
| 2026-05-07 11:45 | 43.37662 | -88.29298 | 36969 ft | 500 kts | 179° |
| 2026-05-07 11:45 | 43.30745 | -88.28155 | 36937 ft | 496 kts | 181° |
| 2026-05-07 11:46 | 43.23920 | -88.27219 | 36933 ft | 494 kts | 181° |
| 2026-05-07 11:46 | 43.17065 | -88.26146 | 36936 ft | 493 kts | 180° |
| 2026-05-07 11:47 | 43.10273 | -88.25055 | 36941 ft | 493 kts | 181° |
| 2026-05-07 11:47 | 43.03478 | -88.23967 | 36944 ft | 493 kts | 181° |
| 2026-05-07 11:48 | 42.96687 | -88.22881 | 36944 ft | 493 kts | 181° |
| 2026-05-07 11:48 | 42.89864 | -88.21794 | 36954 ft | 493 kts | 181° |
| 2026-05-07 11:49 | 42.83088 | -88.20715 | 36955 ft | 493 kts | 181° |
| 2026-05-07 11:49 | 42.76248 | -88.19629 | 36953 ft | 493 kts | 181° |
| 2026-05-07 11:50 | 42.69475 | -88.18553 | 36958 ft | 491 kts | 181° |
| 2026-05-07 11:50 | 42.62669 | -88.17474 | 36952 ft | 490 kts | 181° |
| 2026-05-07 11:51 | 42.55909 | -88.16409 | 36952 ft | 490 kts | 181° |
| 2026-05-07 11:51 | 42.49157 | -88.15346 | 36959 ft | 492 kts | 181° |
| 2026-05-07 11:52 | 42.42396 | -88.14281 | 36946 ft | 489 kts | 182° |
| 2026-05-07 11:52 | 42.35622 | -88.13217 | 36954 ft | 488 kts | 182° |
| 2026-05-07 11:53 | 42.28882 | -88.12161 | 36953 ft | 487 kts | 182° |
| 2026-05-07 11:53 | 42.22126 | -88.11108 | 36951 ft | 488 kts | 182° |
| 2026-05-07 11:54 | 42.15405 | -88.10059 | 36950 ft | 488 kts | 182° |
| 2026-05-07 11:54 | 42.08655 | -88.09008 | 36969 ft | 487 kts | 182° |
| 2026-05-07 11:55 | 42.01926 | -88.07964 | 36972 ft | 487 kts | 182° |
| 2026-05-07 11:55 | 41.95222 | -88.06924 | 36957 ft | 485 kts | 183° |
| 2026-05-07 11:56 | 41.88538 | -88.05892 | 36962 ft | 485 kts | 183° |
| 2026-05-07 11:56 | 41.81811 | -88.04855 | 36964 ft | 487 kts | 182° |
| 2026-05-07 11:57 | 41.75110 | -88.03821 | 36960 ft | 486 kts | 183° |
| 2026-05-07 11:57 | 41.68398 | -88.02790 | 36968 ft | 489 kts | 183° |
| 2026-05-07 11:58 | 41.61680 | -88.00941 | 36995 ft | 502 kts | 171° |
| 2026-05-07 11:58 | 41.55078 | -87.97710 | 36976 ft | 511 kts | 168° |
| 2026-05-07 11:59 | 41.48421 | -87.94469 | 36969 ft | 508 kts | 170° |
| 2026-05-07 11:59 | 41.41755 | -87.91393 | 36941 ft | 509 kts | 171° |
| 2026-05-07 11:59 | 41.38425 | -87.89865 | 36598 ft | 514 kts | 171° |
| 2026-05-07 12:00 | 41.35043 | -87.88306 | 36272 ft | 510 kts | 171° |
| 2026-05-07 12:00 | 41.31704 | -87.86758 | 35936 ft | 505 kts | 171° |
| 2026-05-07 12:00 | 41.28426 | -87.85239 | 35603 ft | 501 kts | 171° |
| 2026-05-07 12:00 | 41.25159 | -87.83727 | 35273 ft | 495 kts | 171° |
| 2026-05-07 12:01 | 41.21910 | -87.82227 | 34932 ft | 491 kts | 171° |
| 2026-05-07 12:01 | 41.18716 | -87.80754 | 34604 ft | 488 kts | 172° |
| 2026-05-07 12:01 | 41.15512 | -87.79282 | 34275 ft | 485 kts | 172° |
| 2026-05-07 12:01 | 41.12351 | -87.77828 | 33937 ft | 483 kts | 172° |
| 2026-05-07 12:02 | 41.09185 | -87.76375 | 33605 ft | 479 kts | 172° |
| 2026-05-07 12:02 | 41.06017 | -87.74923 | 33314 ft | 477 kts | 172° |
| 2026-05-07 12:02 | 41.02919 | -87.73501 | 33030 ft | 473 kts | 172° |
| 2026-05-07 12:02 | 40.99827 | -87.72083 | 32735 ft | 469 kts | 172° |
| 2026-05-07 12:03 | 40.96761 | -87.70678 | 32441 ft | 466 kts | 172° |
| 2026-05-07 12:03 | 40.93709 | -87.69283 | 32151 ft | 461 kts | 172° |
| 2026-05-07 12:03 | 40.90701 | -87.67911 | 31870 ft | 459 kts | 172° |
| 2026-05-07 12:03 | 40.87676 | -87.66529 | 31568 ft | 455 kts | 172° |
| 2026-05-07 12:04 | 40.84720 | -87.65183 | 31235 ft | 453 kts | 172° |
| 2026-05-07 12:04 | 40.81769 | -87.63838 | 30921 ft | 449 kts | 172° |
| 2026-05-07 12:04 | 40.78778 | -87.62477 | 30578 ft | 446 kts | 172° |
| 2026-05-07 12:04 | 40.75884 | -87.61162 | 30247 ft | 443 kts | 172° |
| 2026-05-07 12:05 | 40.72980 | -87.59843 | 29878 ft | 441 kts | 172° |
| 2026-05-07 12:05 | 40.70071 | -87.58527 | 29514 ft | 440 kts | 172° |
| 2026-05-07 12:05 | 40.67202 | -87.57227 | 29146 ft | 438 kts | 172° |
| 2026-05-07 12:05 | 40.64311 | -87.55917 | 28771 ft | 436 kts | 172° |
| 2026-05-07 12:06 | 40.61508 | -87.54414 | 28381 ft | 447 kts | 160° |
| 2026-05-07 12:06 | 40.58975 | -87.51931 | 28048 ft | 466 kts | 144° |
| 2026-05-07 12:06 | 40.56713 | -87.48887 | 27760 ft | 468 kts | 141° |
| 2026-05-07 12:06 | 40.54495 | -87.45760 | 27385 ft | 467 kts | 141° |
| 2026-05-07 12:07 | 40.52214 | -87.42680 | 27023 ft | 463 kts | 143° |
| 2026-05-07 12:07 | 40.49950 | -87.39734 | 26661 ft | 460 kts | 143° |
| 2026-05-07 12:07 | 40.47662 | -87.36790 | 26301 ft | 457 kts | 143° |
| 2026-05-07 12:07 | 40.45416 | -87.33888 | 25923 ft | 454 kts | 144° |
| 2026-05-07 12:08 | 40.43319 | -87.30763 | 25524 ft | 457 kts | 137° |
| 2026-05-07 12:08 | 40.41317 | -87.27515 | 25166 ft | 456 kts | 136° |
| 2026-05-07 12:08 | 40.39346 | -87.24308 | 24786 ft | 453 kts | 136° |
| 2026-05-07 12:08 | 40.37368 | -87.21104 | 24404 ft | 451 kts | 136° |
| 2026-05-07 12:09 | 40.35397 | -87.17922 | 24036 ft | 448 kts | 136° |
| 2026-05-07 12:09 | 40.33456 | -87.14796 | 23663 ft | 445 kts | 136° |
| 2026-05-07 12:09 | 40.31515 | -87.11676 | 23307 ft | 443 kts | 136° |
| 2026-05-07 12:09 | 40.29560 | -87.08536 | 22934 ft | 438 kts | 136° |
| 2026-05-07 12:10 | 40.27649 | -87.05468 | 22545 ft | 432 kts | 136° |
| 2026-05-07 12:10 | 40.25771 | -87.02455 | 22166 ft | 426 kts | 136° |
| 2026-05-07 12:10 | 40.23904 | -86.99465 | 21785 ft | 422 kts | 136° |
| 2026-05-07 12:10 | 40.22071 | -86.96538 | 21436 ft | 419 kts | 136° |
| 2026-05-07 12:11 | 40.20229 | -86.93595 | 21047 ft | 416 kts | 136° |
| 2026-05-07 12:11 | 40.18397 | -86.90674 | 20674 ft | 414 kts | 136° |
| 2026-05-07 12:11 | 40.16591 | -86.87790 | 20296 ft | 412 kts | 136° |
| 2026-05-07 12:11 | 40.14678 | -86.84998 | 19906 ft | 406 kts | 142° |
| 2026-05-07 12:12 | 40.12717 | -86.82387 | 19559 ft | 403 kts | 141° |
| 2026-05-07 12:12 | 40.10800 | -86.79768 | 19168 ft | 398 kts | 141° |
| 2026-05-07 12:12 | 40.08899 | -86.77168 | 18777 ft | 393 kts | 140° |
| 2026-05-07 12:12 | 40.07027 | -86.74593 | 18402 ft | 388 kts | 140° |
| 2026-05-07 12:13 | 40.05188 | -86.72067 | 18024 ft | 383 kts | 140° |
| 2026-05-07 12:13 | 40.03355 | -86.69551 | 17635 ft | 379 kts | 140° |
| 2026-05-07 12:13 | 40.01548 | -86.67083 | 17256 ft | 375 kts | 140° |
| 2026-05-07 12:13 | 39.99770 | -86.64650 | 16882 ft | 372 kts | 140° |
| 2026-05-07 12:14 | 39.97979 | -86.62200 | 16506 ft | 370 kts | 139° |
| 2026-05-07 12:14 | 39.96233 | -86.59787 | 16138 ft | 368 kts | 138° |
| 2026-05-07 12:14 | 39.94465 | -86.57324 | 15764 ft | 366 kts | 138° |
| 2026-05-07 12:14 | 39.92754 | -86.54939 | 15403 ft | 363 kts | 137° |
| 2026-05-07 12:15 | 39.91028 | -86.52534 | 15047 ft | 361 kts | 137° |
| 2026-05-07 12:15 | 39.89332 | -86.50170 | 14687 ft | 357 kts | 137° |
| 2026-05-07 12:15 | 39.87644 | -86.47816 | 14322 ft | 353 kts | 137° |
| 2026-05-07 12:15 | 39.85978 | -86.45493 | 13942 ft | 349 kts | 137° |
| 2026-05-07 12:16 | 39.84282 | -86.43239 | 13565 ft | 345 kts | 139° |
| 2026-05-07 12:16 | 39.82812 | -86.40839 | 13164 ft | 346 kts | 120° |
| 2026-05-07 12:16 | 39.82050 | -86.37872 | 12819 ft | 343 kts | 96° |
| 2026-05-07 12:16 | 39.82185 | -86.34821 | 12474 ft | 336 kts | 72° |
| 2026-05-07 12:17 | 39.83156 | -86.32143 | 12128 ft | 325 kts | 51° |
| 2026-05-07 12:17 | 39.84470 | -86.29821 | 11792 ft | 319 kts | 48° |
| 2026-05-07 12:17 | 39.85874 | -86.27563 | 11485 ft | 314 kts | 47° |
| 2026-05-07 12:17 | 39.87235 | -86.25378 | 11217 ft | 308 kts | 47° |
| 2026-05-07 12:18 | 39.88559 | -86.23258 | 10950 ft | 302 kts | 47° |
| 2026-05-07 12:18 | 39.89874 | -86.21166 | 10683 ft | 296 kts | 47° |
| 2026-05-07 12:18 | 39.91171 | -86.19106 | 10413 ft | 291 kts | 47° |
| 2026-05-07 12:18 | 39.92455 | -86.17082 | 10149 ft | 286 kts | 47° |
| 2026-05-07 12:19 | 39.93723 | -86.15084 | 9851 ft | 284 kts | 47° |
| 2026-05-07 12:19 | 39.94970 | -86.13118 | 9547 ft | 281 kts | 47° |
| 2026-05-07 12:19 | 39.96192 | -86.11189 | 9309 ft | 273 kts | 47° |
| 2026-05-07 12:19 | 39.97394 | -86.09277 | 9005 ft | 267 kts | 47° |
| 2026-05-07 12:20 | 39.98549 | -86.07439 | 8683 ft | 261 kts | 46° |
| 2026-05-07 12:20 | 39.99685 | -86.05619 | 8358 ft | 256 kts | 47° |
| 2026-05-07 12:20 | 40.00787 | -86.03849 | 8033 ft | 251 kts | 47° |
| 2026-05-07 12:20 | 40.01847 | -86.02076 | 7686 ft | 249 kts | 56° |
| 2026-05-07 12:21 | 40.02233 | -85.99889 | 7330 ft | 252 kts | 96° |
| 2026-05-07 12:21 | 40.01519 | -85.97870 | 7039 ft | 246 kts | 136° |
| 2026-05-07 12:21 | 40.00063 | -85.96881 | 6736 ft | 234 kts | 178° |
| 2026-05-07 12:21 | 39.98531 | -85.97285 | 6511 ft | 218 kts | 213° |
| 2026-05-07 12:22 | 39.97246 | -85.98260 | 6337 ft | 217 kts | 216° |
| 2026-05-07 12:22 | 39.95946 | -85.99262 | 6026 ft | 217 kts | 213° |
| 2026-05-07 12:22 | 39.94599 | -86.00149 | 5707 ft | 216 kts | 213° |
| 2026-05-07 12:22 | 39.93324 | -86.01129 | 5477 ft | 211 kts | 218° |
| 2026-05-07 12:23 | 39.92123 | -86.02255 | 5294 ft | 211 kts | 223° |
| 2026-05-07 12:23 | 39.90973 | -86.03455 | 5077 ft | 210 kts | 226° |
| 2026-05-07 12:23 | 39.89924 | -86.04728 | 5036 ft | 203 kts | 228° |
| 2026-05-07 12:23 | 39.88935 | -86.06039 | 5098 ft | 203 kts | 232° |
| 2026-05-07 12:24 | 39.88000 | -86.07420 | 5213 ft | 204 kts | 235° |
| 2026-05-07 12:24 | 39.87014 | -86.08763 | 5120 ft | 209 kts | 226° |
| 2026-05-07 12:24 | 39.85901 | -86.09988 | 4913 ft | 210 kts | 224° |
| 2026-05-07 12:24 | 39.84808 | -86.11242 | 4626 ft | 208 kts | 229° |
| 2026-05-07 12:25 | 39.83794 | -86.12586 | 4289 ft | 209 kts | 231° |
| 2026-05-07 12:25 | 39.82794 | -86.13950 | 3964 ft | 208 kts | 231° |
| 2026-05-07 12:25 | 39.81834 | -86.15302 | 3760 ft | 192 kts | 234° |
| 2026-05-07 12:25 | 39.80974 | -86.16569 | 3404 ft | 185 kts | 231° |
| 2026-05-07 12:26 | 39.80062 | -86.17643 | 3169 ft | 174 kts | 223° |
| 2026-05-07 12:26 | 39.79085 | -86.18572 | 2892 ft | 175 kts | 220° |
| 2026-05-07 12:26 | 39.78102 | -86.19503 | 2539 ft | 171 kts | 222° |
| 2026-05-07 12:26 | 39.77186 | -86.20459 | 2208 ft | 166 kts | 225° |
| 2026-05-07 12:27 | 39.76376 | -86.21467 | 2022 ft | 161 kts | 232° |
| 2026-05-07 12:27 | 39.75664 | -86.22581 | 1889 ft | 160 kts | 236° |
| 2026-05-07 12:27 | 39.74997 | -86.23743 | 1638 ft | 158 kts | 236° |
| 2026-05-07 12:27 | 39.74319 | -86.24863 | 1455 ft | 160 kts | 232° |
| 2026-05-07 12:28 | 39.73555 | -86.25929 | 1257 ft | 160 kts | 225° |
| 2026-05-07 12:28 | 39.72764 | -86.26933 | 1061 ft | 160 kts | 226° |
| 2026-05-07 12:28 | 39.71975 | -86.27940 | 881 ft | 160 kts | 225° |
| 2026-05-07 12:28 | 39.71210 | -86.28926 | 801 ft | 148 kts | 226° |
| 2026-05-07 12:29 | 39.70557 | -86.29765 | 797 ft | 107 kts | 225° |
| 2026-05-07 12:29 | 39.70244 | -86.30177 | 798 ft | 28 kts | 224° |
| 2026-05-07 12:29 | 39.70139 | -86.30306 | 797 ft | 17 kts | 222° |
| 2026-05-07 12:29 | 39.70054 | -86.30308 | 797 ft | 11 kts | 131° |
| 2026-05-07 12:30 | 39.70003 | -86.30231 | 799 ft | 9 kts | 114° |
| 2026-05-07 12:30 | 39.70009 | -86.30155 | 800 ft | 8 kts | 66° |
| 2026-05-07 12:30 | 39.70040 | -86.30114 | 800 ft | 6 kts | 35° |
| 2026-05-07 12:30 | 39.70082 | -86.30074 | 800 ft | 9 kts | 37° |
| 2026-05-07 12:31 | 39.70124 | -86.30019 | 801 ft | 9 kts | 45° |
| 2026-05-07 12:31 | 39.70181 | -86.29945 | 801 ft | 13 kts | 45° |
| 2026-05-07 12:31 | 39.70250 | -86.29855 | 802 ft | 15 kts | 44° |
| 2026-05-07 12:31 | 39.70329 | -86.29757 | 802 ft | 16 kts | 44° |
| 2026-05-07 12:32 | 39.70410 | -86.29650 | 802 ft | 17 kts | 45° |
| 2026-05-07 12:32 | 39.70499 | -86.29540 | 802 ft | 17 kts | 38° |
| 2026-05-07 12:32 | 39.70616 | -86.29468 | 800 ft | 19 kts | 27° |
| 2026-05-07 12:32 | 39.70721 | -86.29356 | 800 ft | 20 kts | 44° |
| 2026-05-07 12:33 | 39.70927 | -86.29091 | 802 ft | 21 kts | 45° |
| 2026-05-07 12:33 | 39.71036 | -86.28951 | 800 ft | 22 kts | 45° |
| 2026-05-07 12:33 | 39.71151 | -86.28805 | 800 ft | 22 kts | 44° |
| 2026-05-07 12:34 | 39.71264 | -86.28661 | 798 ft | 23 kts | 45° |
| 2026-05-07 12:34 | 39.71385 | -86.28508 | 797 ft | 25 kts | 44° |
| 2026-05-07 12:34 | 39.71464 | -86.28406 | 797 ft | 12 kts | 52° |
| 2026-05-07 12:34 | 39.71448 | -86.28314 | 797 ft | 7 kts | 142° |
| 2026-05-07 12:35 | 39.71408 | -86.28264 | 797 ft | 8 kts | 111° |
| 2026-05-07 12:35 | 39.71427 | -86.28190 | 795 ft | 10 kts | 49° |
| 2026-05-07 12:35 | 39.71429 | -86.28149 | 795 ft | 0 kts | 132° |
| 2026-05-07 12:35 | 39.71426 | -86.28145 | 795 ft | 0 kts | 123° |
| 2026-05-07 12:36 | 39.71419 | -86.28129 | 795 ft | 2 kts | 120° |
| 2026-05-07 12:36 | 39.71408 | -86.28110 | 795 ft | 2 kts | 134° |
| 2026-05-07 12:36 | 39.71407 | -86.28109 | 795 ft | 0 kts | 134° |
| 2026-05-07 12:42 | 39.71408 | -86.28109 | 795 ft | 0 kts | 135° |